AXCGGARGARGarmin  id=292  GPSMap60CSX Software Version 4.00|3424816515
HFDTE180712
HFPLTPilot:
HFTZOTimezone:2
HFSITSite:
HPGTYGliderType:
HPGIDGliderID:
HFDTM100DATUM:WGS-1984
HFCIDCOMPETITIONID:
HFCCLCOMPETITIONCLASS:
LXCG     ICON:D:\Archivos de programa\CompeGPS\symbols\IconsPlay\HG.ico
LXCG     COLOR:000255000
LXCG POINTSCOUNT:3172
LXCG COORDBOX:-6.382400,39.199250,-6.106133,39.417533
I00
B1146203912867N00607380WA0000000886
LXCG     TRX0
B1146253912867N00607380WA0000000885
B1146303912867N00607380WA0000000900
B1146363912867N00607380WA0000000906
B1146413912868N00607380WA0000000919
B1146463912870N00607380WA0000000939
B1146513912871N00607380WA0000000945
B1146563912870N00607380WA0000000950
B1147013912869N00607379WA0000000957
B1147063912869N00607379WA0000000961
B1147113912869N00607379WA0000000965
B1147173912870N00607381WA0000000966
B1147223912870N00607383WA0000000969
B1147273912870N00607382WA0000000972
B1147323912871N00607384WA0000000974
B1147373912871N00607385WA0000000976
B1147423912872N00607385WA0000000978
B1147473912873N00607387WA0000000980
B1147523912873N00607386WA0000000981
B1147573912871N00607385WA0000000983
B1148023912871N00607385WA0000000984
B1148073912871N00607382WA0000000984
B1148123912867N00607378WA0000000986
B1148173912868N00607378WA0000000987
B1148223912869N00607379WA0000000987
B1148273912870N00607381WA0000000988
B1148323912870N00607379WA0000000987
B1148373912870N00607379WA0000000988
B1148443912870N00607379WA0000000989
B1148493912872N00607378WA0000000988
B1148543912870N00607378WA0000000989
B1148593912870N00607379WA0000000988
B1149043912870N00607379WA0000000988
B1149093912870N00607380WA0000000989
B1149143912870N00607380WA0000000988
B1149193912869N00607379WA0000000988
B1149263912868N00607379WA0000000989
B1149313912868N00607380WA0000000989
B1149363912867N00607379WA0000000989
B1149413912867N00607380WA0000000990
B1149473912869N00607379WA0000000989
B1149523912869N00607375WA0000000988
B1149573912870N00607373WA0000000988
B1150023912870N00607374WA0000000988
B1150073912871N00607373WA0000000988
B1150123912869N00607373WA0000000987
B1150173912870N00607372WA0000000987
B1150223912872N00607371WA0000000987
B1150273912867N00607377WA0000000988
B1150323912865N00607381WA0000000988
B1150373912864N00607383WA0000000989
B1150423912864N00607384WA0000000990
B1150473912864N00607383WA0000000989
B1150523912864N00607382WA0000000989
B1150573912863N00607381WA0000000989
B1151023912863N00607381WA0000000987
B1151073912863N00607380WA0000000988
B1151123912863N00607379WA0000000988
B1151173912863N00607379WA0000000989
B1151243912863N00607379WA0000000988
B1151293912862N00607381WA0000000988
B1151343912862N00607380WA0000000989
B1151393912862N00607379WA0000000989
B1151443912862N00607379WA0000000989
B1151493912862N00607380WA0000000989
B1151543912862N00607381WA0000000989
B1151593912863N00607381WA0000000989
B1152043912862N00607381WA0000000989
B1152093912862N00607381WA0000000989
B1152153912862N00607380WA0000000989
B1152203912862N00607380WA0000000989
B1152253912862N00607379WA0000000989
B1152303912862N00607379WA0000000989
B1152353912862N00607379WA0000000989
B1152403912864N00607382WA0000000989
B1152453912864N00607382WA0000000989
B1152523912864N00607382WA0000000989
B1152573912864N00607383WA0000000990
B1153023912865N00607379WA0000000991
B1153073912864N00607379WA0000000989
B1153123912865N00607380WA0000000989
B1153173912864N00607381WA0000000989
B1153223912863N00607381WA0000000989
B1153273912862N00607382WA0000000989
B1153323912863N00607383WA0000000988
B1153373912863N00607383WA0000000989
B1153443912864N00607384WA0000000989
B1153493912864N00607384WA0000000988
B1153543912864N00607384WA0000000989
B1153593912863N00607384WA0000000988
B1154043912867N00607382WA0000000989
B1154093912870N00607382WA0000000989
B1154143912868N00607382WA0000000989
B1154193912867N00607382WA0000000989
B1154243912865N00607383WA0000000989
B1154293912865N00607383WA0000000989
B1154343912867N00607383WA0000000989
B1154393912866N00607383WA0000000989
B1154443912868N00607380WA0000000989
B1154493912865N00607378WA0000000988
B1154543912865N00607378WA0000000988
B1154593912864N00607378WA0000000988
B1155043912865N00607379WA0000000988
B1155093912864N00607378WA0000000989
B1155143912865N00607377WA0000000989
B1155193912863N00607379WA0000000989
B1155243912863N00607378WA0000000990
B1155293912864N00607378WA0000000989
B1155343912864N00607380WA0000000989
B1155393912863N00607380WA0000000989
B1155443912863N00607382WA0000000989
B1155493912863N00607378WA0000000989
B1155543912857N00607362WA0000000988
B1155593912857N00607347WA0000000990
B1156043912848N00607334WA0000000994
B1156093912837N00607325WA0000000994
B1156143912826N00607313WA0000001000
B1156193912814N00607305WA0000001009
B1156243912803N00607288WA0000001013
B1156293912796N00607274WA0000001013
B1156343912783N00607263WA0000001011
B1156393912767N00607257WA0000001012
B1156443912749N00607247WA0000001010
B1156493912734N00607235WA0000001013
B1156543912736N00607221WA0000001019
B1156593912727N00607203WA0000001021
B1157043912727N00607259WA0000001012
B1157093912721N00607259WA0000001011
B1157143912790N00607292WA0000001007
B1157193912821N00607301WA0000001012
B1157243912841N00607294WA0000001010
B1157293912870N00607302WA0000001002
B1157343912835N00607260WA0000000999
B1157393912814N00607247WA0000000998
B1157443912796N00607230WA0000000989
B1157493912783N00607209WA0000000986
B1157543912770N00607187WA0000000981
B1157593912755N00607169WA0000000978
B1158043912742N00607158WA0000000969
B1158093912733N00607135WA0000000960
B1158143912730N00607108WA0000000955
B1158193912734N00607079WA0000000954
B1158243912732N00607049WA0000000951
B1158293912733N00607023WA0000000958
B1158343912733N00607002WA0000000961
B1158393912732N00606981WA0000000970
B1158443912731N00606960WA0000000975
B1158493912761N00607045WA0000000976
B1158543912766N00607022WA0000000976
B1158593912774N00607002WA0000000988
B1159043912771N00606987WA0000001000
B1159093912762N00606973WA0000001011
B1159143912760N00606963WA0000001015
B1159193912759N00606953WA0000001021
B1159243912758N00606943WA0000001025
B1159293912817N00606985WA0000001040
B1159343912812N00606955WA0000001055
B1159393912789N00606974WA0000001056
B1159453912795N00607023WA0000001053
B1159503912824N00607021WA0000001058
B1159553912820N00607050WA0000001068
B1200003912848N00606966WA0000001074
B1200053912843N00606949WA0000001076
B1200103912831N00606935WA0000001072
B1200153912808N00606949WA0000001064
B1200203912798N00606933WA0000001057
B1200253912788N00606916WA0000001047
B1200303912805N00607063WA0000001045
B1200353912799N00607111WA0000001048
B1200403912814N00607147WA0000001047
B1200453912830N00607181WA0000001051
B1200503912846N00607218WA0000001054
B1200553912857N00607249WA0000001054
B1201003912866N00607284WA0000001054
B1201053912839N00607272WA0000001067
B1201103912832N00607255WA0000001074
B1201153912823N00607234WA0000001084
B1201203912817N00607223WA0000001081
B1201253912811N00607213WA0000001076
B1201303912805N00607202WA0000001081
B1201353912885N00607258WA0000001086
B1201403912889N00607234WA0000001092
B1201453912885N00607222WA0000001097
B1201503912863N00607210WA0000001091
B1201553912843N00607237WA0000001085
B1202003912833N00607259WA0000001087
B1202053912819N00607271WA0000001083
B1202103912810N00607290WA0000001081
B1202153912798N00607240WA0000001076
B1202203912789N00607221WA0000001069
B1202253912777N00607198WA0000001058
B1202303912767N00607178WA0000001052
B1202353912757N00607162WA0000001047
B1202403912743N00607156WA0000001044
B1202453912722N00607156WA0000001044
B1202503912701N00607156WA0000001042
B1202553912680N00607155WA0000001038
B1203003912659N00607155WA0000001035
B1203063912631N00607150WA0000001036
B1203113912610N00607144WA0000001032
B1203163912588N00607150WA0000001015
B1203213912575N00607160WA0000001027
B1203263912565N00607168WA0000001028
B1203313912546N00607182WA0000001026
B1203363912533N00607193WA0000001028
B1203413912520N00607206WA0000001031
B1203463912504N00607216WA0000001032
B1203513912487N00607222WA0000001037
B1203563912470N00607224WA0000001040
B1204013912451N00607224WA0000001042
B1204063912431N00607219WA0000001036
B1204113912421N00607182WA0000001024
B1204163912398N00607170WA0000001023
B1204213912477N00607161WA0000001030
B1204263912514N00607156WA0000001031
B1204313912512N00607130WA0000001026
B1204373912490N00607130WA0000001016
B1204423912479N00607169WA0000001014
B1204473912467N00607193WA0000001011
B1204523912452N00607214WA0000001000
B1204573912434N00607232WA0000000995
B1205023912415N00607247WA0000000989
B1205073912395N00607265WA0000000985
B1205123912374N00607283WA0000000977
B1205173912360N00607304WA0000000970
B1205223912338N00607318WA0000000979
B1205273912317N00607335WA0000000987
B1205323912304N00607357WA0000000996
B1205373912292N00607371WA0000001012
B1205423912262N00607376WA0000001022
B1205473912245N00607379WA0000001030
B1205523912228N00607358WA0000001018
B1205573912248N00607334WA0000001020
B1206023912280N00607322WA0000001024
B1206073912309N00607319WA0000001034
B1206123912333N00607307WA0000001036
B1206173912325N00607285WA0000001043
B1206223912310N00607306WA0000001050
B1206273912327N00607340WA0000001057
B1206323912354N00607328WA0000001060
B1206373912362N00607303WA0000001069
B1206423912352N00607290WA0000001076
B1206473912350N00607273WA0000001078
B1206523912348N00607256WA0000001079
B1206573912345N00607239WA0000001083
B1207023912377N00607332WA0000001090
B1207073912362N00607328WA0000001097
B1207123912339N00607322WA0000001103
B1207173912325N00607316WA0000001099
B1207223912312N00607311WA0000001095
B1207273912382N00607351WA0000001096
B1207323912390N00607336WA0000001103
B1207373912388N00607315WA0000001096
B1207423912379N00607288WA0000001090
B1207473912372N00607269WA0000001094
B1207523912369N00607241WA0000001080
B1207573912361N00607214WA0000001074
B1208023912354N00607185WA0000001068
B1208073912348N00607157WA0000001072
B1208123912342N00607133WA0000001073
B1208173912334N00607111WA0000001079
B1208223912326N00607090WA0000001092
B1208273912312N00607094WA0000001088
B1208323912307N00607075WA0000001086
B1208373912302N00607056WA0000001084
B1208423912367N00607141WA0000001096
B1208473912375N00607114WA0000001099
B1208523912355N00607104WA0000001110
B1208573912341N00607104WA0000001116
B1209023912353N00607138WA0000001117
B1209073912387N00607140WA0000001117
B1209123912385N00607139WA0000001127
B1209173912402N00607092WA0000001131
B1209223912390N00607105WA0000001138
B1209273912376N00607112WA0000001139
B1209323912362N00607120WA0000001144
B1209373912428N00607158WA0000001146
B1209423912438N00607136WA0000001151
B1209473912456N00607102WA0000001159
B1209523912450N00607076WA0000001160
B1209573912445N00607075WA0000001158
B1210023912447N00607065WA0000001163
B1210073912420N00607122WA0000001165
B1210123912429N00607154WA0000001166
B1210173912456N00607163WA0000001171
B1210223912484N00607143WA0000001176
B1210273912496N00607114WA0000001178
B1210323912490N00607090WA0000001189
B1210373912503N00607065WA0000001194
B1210423912515N00607040WA0000001196
B1210473912527N00607015WA0000001198
B1210523912540N00606990WA0000001195
B1210573912550N00607111WA0000001203
B1211023912561N00607087WA0000001214
B1211073912569N00607051WA0000001208
B1211123912565N00607022WA0000001203
B1211173912557N00606997WA0000001199
B1211223912550N00606977WA0000001195
B1211273912534N00606990WA0000001184
B1211323912515N00607018WA0000001179
B1211373912509N00607045WA0000001180
B1211423912495N00607073WA0000001187
B1211473912504N00607103WA0000001186
B1211523912526N00607120WA0000001189
B1211573912524N00607142WA0000001188
B1212023912543N00607074WA0000001196
B1212073912537N00607054WA0000001205
B1212123912523N00607054WA0000001212
B1212173912517N00607058WA0000001212
B1212223912553N00607099WA0000001212
B1212273912580N00607085WA0000001210
B1212323912593N00607058WA0000001212
B1212373912580N00607045WA0000001208
B1212423912564N00607029WA0000001202
B1212473912547N00607011WA0000001206
B1212523912533N00606984WA0000001203
B1212573912524N00606956WA0000001193
B1213023912511N00606925WA0000001181
B1213073912498N00606893WA0000001169
B1213123912485N00606861WA0000001153
B1213173912474N00606826WA0000001142
B1213223912466N00606792WA0000001133
B1213273912463N00606759WA0000001124
B1213323912455N00606725WA0000001115
B1213373912445N00606692WA0000001099
B1213423912434N00606658WA0000001088
B1213473912419N00606629WA0000001080
B1213523912402N00606612WA0000001071
B1213573912388N00606593WA0000001061
B1214023912358N00606624WA0000001049
B1214073912339N00606639WA0000001035
B1214123912314N00606668WA0000001020
B1214173912301N00606703WA0000001011
B1214223912311N00606748WA0000000997
B1214273912310N00606781WA0000000976
B1214343912322N00606834WA0000000957
B1214393912323N00606870WA0000000943
B1214443912326N00606907WA0000000930
B1214493912322N00606942WA0000000912
B1214543912320N00606974WA0000000901
B1214593912317N00607005WA0000000892
B1215043912312N00607037WA0000000885
B1215093912311N00607070WA0000000875
B1215143912308N00607106WA0000000860
B1215193912300N00607136WA0000000858
B1215243912288N00607161WA0000000859
B1215293912272N00607185WA0000000861
B1215343912261N00607213WA0000000860
B1215393912252N00607243WA0000000860
B1215443912230N00607274WA0000000857
B1215493912206N00607296WA0000000860
B1215543912188N00607321WA0000000863
B1215593912167N00607344WA0000000867
B1216043912150N00607365WA0000000874
B1216093912133N00607392WA0000000879
B1216143912118N00607409WA0000000884
B1216193912104N00607437WA0000000879
B1216243912084N00607428WA0000000880
B1216293912082N00607402WA0000000873
B1216343912108N00607380WA0000000864
B1216393912129N00607358WA0000000862
B1216443912146N00607335WA0000000849
B1216493912166N00607310WA0000000847
B1216543912188N00607288WA0000000856
B1216593912208N00607268WA0000000861
B1217043912234N00607249WA0000000862
B1217093912254N00607229WA0000000859
B1217143912268N00607210WA0000000857
B1217193912282N00607190WA0000000857
B1217243912291N00607170WA0000000852
B1217293912303N00607146WA0000000850
B1217343912315N00607122WA0000000847
B1217393912246N00607254WA0000000859
B1217443912228N00607287WA0000000857
B1217493912214N00607301WA0000000870
B1217543912194N00607319WA0000000862
B1217593912174N00607333WA0000000854
B1218043912151N00607345WA0000000845
B1218093912127N00607348WA0000000840
B1218143912104N00607347WA0000000832
B1218193912081N00607330WA0000000824
B1218243912072N00607306WA0000000818
B1218293912075N00607274WA0000000813
B1218343912075N00607244WA0000000811
B1218393912070N00607218WA0000000813
B1218443912065N00607189WA0000000817
B1218493912056N00607178WA0000000819
B1218543912053N00607155WA0000000834
B1218593912049N00607132WA0000000833
B1219043912053N00607223WA0000000842
B1219093912052N00607200WA0000000847
B1219143912046N00607186WA0000000858
B1219193912035N00607177WA0000000861
B1219243912024N00607167WA0000000865
B1219293912014N00607157WA0000000867
B1219343912044N00607223WA0000000871
B1219393912033N00607197WA0000000880
B1219443912016N00607188WA0000000888
B1219493912002N00607174WA0000000890
B1219543911992N00607156WA0000000891
B1219593911980N00607139WA0000000890
B1220043911967N00607121WA0000000890
B1220093911955N00607104WA0000000892
B1220143912016N00607264WA0000000902
B1220193912046N00607281WA0000000914
B1220243912073N00607292WA0000000920
B1220293912042N00607264WA0000000930
B1220343912019N00607282WA0000000943
B1220393912027N00607297WA0000000952
B1220443912036N00607312WA0000000963
B1220493912064N00607306WA0000000967
B1220543912077N00607318WA0000000980
B1220593912042N00607294WA0000000989
B1221043912041N00607300WA0000000998
B1221093912062N00607354WA0000001010
B1221143912076N00607339WA0000001023
B1221193912071N00607324WA0000001027
B1221243912060N00607317WA0000001036
B1221293912049N00607310WA0000001044
B1221343912038N00607303WA0000001057
B1221393912112N00607378WA0000001069
B1221443912116N00607351WA0000001072
B1221493912109N00607360WA0000001077
B1221543912111N00607355WA0000001084
B1221593912080N00607437WA0000001100
B1222043912080N00607474WA0000001111
B1222093912123N00607470WA0000001121
B1222143912135N00607447WA0000001132
B1222193912136N00607458WA0000001147
B1222243912116N00607431WA0000001157
B1222293912110N00607439WA0000001172
B1222343912104N00607447WA0000001180
B1222393912141N00607480WA0000001190
B1222443912144N00607455WA0000001204
B1222493912125N00607464WA0000001219
B1222543912129N00607502WA0000001238
B1222593912125N00607507WA0000001248
B1223043912187N00607482WA0000001259
B1223093912194N00607459WA0000001280
B1223143912173N00607459WA0000001288
B1223193912175N00607451WA0000001305
B1223243912177N00607443WA0000001321
B1223293912179N00607435WA0000001334
B1223343912181N00607427WA0000001348
B1223393912203N00607468WA0000001368
B1223443912199N00607456WA0000001377
B1223493912195N00607443WA0000001395
B1223543912190N00607431WA0000001410
B1223593912186N00607419WA0000001428
B1224043912181N00607407WA0000001444
B1224093912177N00607395WA0000001458
B1224143912177N00607395WA0000001477
LXCG     TRX0
B1224183912177N00607395WA0000001493
B1224233912177N00607395WA0000001510
B1224243912255N00607510WA0000001510
LXCG     TRX0
B1224293912255N00607495WA0000001527
B1224343912256N00607481WA0000001542
B1224393912256N00607466WA0000001560
B1224443912259N00607565WA0000001572
B1224493912260N00607543WA0000001594
B1224543912249N00607533WA0000001604
B1224593912228N00607563WA0000001617
B1225043912244N00607591WA0000001632
B1225093912258N00607599WA0000001645
B1225143912265N00607611WA0000001657
B1225193912272N00607622WA0000001667
B1225243912279N00607633WA0000001682
B1225293912287N00607645WA0000001695
B1225343912294N00607656WA0000001711
B1225393912267N00607625WA0000001718
B1225443912290N00607588WA0000001725
B1225493912281N00607560WA0000001743
B1225543912277N00607535WA0000001760
B1225593912258N00607523WA0000001779
B1226043912251N00607561WA0000001790
B1226093912274N00607570WA0000001803
B1226143912290N00607543WA0000001819
B1226193912274N00607521WA0000001835
B1226243912255N00607545WA0000001850
B1226293912263N00607578WA0000001855
B1226343912293N00607579WA0000001865
B1226393912304N00607546WA0000001877
B1226443912298N00607517WA0000001890
B1226493912283N00607495WA0000001910
B1226543912274N00607478WA0000001918
B1226593912265N00607461WA0000001926
B1227043912313N00607527WA0000001939
B1227093912321N00607500WA0000001958
B1227143912308N00607477WA0000001959
B1227193912312N00607452WA0000001965
B1227243912317N00607427WA0000001970
B1227293912322N00607402WA0000001986
B1227343912360N00607541WA0000001998
B1227393912363N00607542WA0000002007
B1227443912358N00607487WA0000002015
B1227493912351N00607460WA0000002015
B1227543912343N00607433WA0000002013
B1227593912336N00607407WA0000002016
B1228043912328N00607380WA0000002025
B1228093912381N00607563WA0000002033
B1228143912405N00607566WA0000002043
B1228193912430N00607556WA0000002049
B1228243912455N00607548WA0000002050
B1228293912405N00607501WA0000002045
B1228343912396N00607494WA0000002053
B1228393912362N00607514WA0000002050
B1228443912367N00607547WA0000002049
B1228493912386N00607553WA0000002053
B1228543912405N00607566WA0000002054
B1228593912428N00607583WA0000002060
B1229043912454N00607597WA0000002062
B1229093912476N00607605WA0000002067
B1229143912507N00607613WA0000002073
B1229193912531N00607619WA0000002081
B1229243912561N00607622WA0000002084
B1229293912567N00607598WA0000002083
B1229343912548N00607577WA0000002078
B1229393912543N00607548WA0000002079
B1229443912538N00607518WA0000002081
B1229493912533N00607488WA0000002084
B1229543912571N00607690WA0000002087
B1229593912593N00607714WA0000002091
B1230043912617N00607737WA0000002092
B1230093912640N00607763WA0000002089
B1230143912661N00607790WA0000002082
B1230193912682N00607815WA0000002081
B1230243912700N00607836WA0000002077
B1230293912721N00607860WA0000002074
B1230343912743N00607886WA0000002070
B1230393912764N00607908WA0000002065
B1230443912783N00607930WA0000002062
B1230493912802N00607943WA0000002055
B1230543912825N00607958WA0000002043
B1230593912847N00607975WA0000002034
B1231043912871N00607998WA0000002026
B1231093912897N00608022WA0000002028
B1231143912917N00608042WA0000002035
B1231193912941N00608068WA0000002034
B1231243912964N00608097WA0000002038
B1231293912984N00608119WA0000002043
B1231343913005N00608137WA0000002044
B1231393913024N00608109WA0000002043
B1231443913017N00608077WA0000002042
B1231493912994N00608066WA0000002037
B1231543912974N00608101WA0000002038
B1231593912976N00608107WA0000002040
B1232043912982N00608181WA0000002038
B1232093913010N00608209WA0000002040
B1232143913032N00608239WA0000002039
B1232193913058N00608264WA0000002034
B1232243913085N00608289WA0000002032
B1232293913106N00608318WA0000002031
B1232343913124N00608348WA0000002029
B1232393913139N00608374WA0000002028
B1232443913157N00608399WA0000002023
B1232493913177N00608426WA0000002016
B1232543913197N00608455WA0000002016
B1232593913218N00608484WA0000002016
B1233043913235N00608511WA0000002016
B1233093913253N00608537WA0000002008
B1233143913274N00608563WA0000002006
B1233193913294N00608589WA0000002001
B1233243913316N00608614WA0000001986
B1233293913335N00608635WA0000001974
B1233343913359N00608660WA0000001958
B1233393913378N00608685WA0000001949
B1233443913399N00608707WA0000001937
B1233493913418N00608730WA0000001929
B1233543913438N00608751WA0000001922
B1233593913458N00608773WA0000001912
B1234043913477N00608798WA0000001905
B1234093913497N00608823WA0000001898
B1234143913519N00608849WA0000001891
B1234193913542N00608873WA0000001886
B1234243913567N00608894WA0000001878
B1234293913590N00608915WA0000001873
B1234343913615N00608934WA0000001868
B1234393913641N00608953WA0000001858
B1234443913664N00608978WA0000001847
B1234493913689N00609001WA0000001835
B1234543913717N00609018WA0000001824
B1234593913745N00609035WA0000001815
B1235043913775N00609053WA0000001805
B1235093913805N00609070WA0000001790
B1235143913834N00609087WA0000001779
B1235193913865N00609102WA0000001768
B1235243913898N00609116WA0000001756
B1235293913929N00609131WA0000001746
B1235343913958N00609149WA0000001734
B1235393913989N00609167WA0000001730
B1235443914016N00609179WA0000001721
B1235493914049N00609194WA0000001716
B1235543914077N00609211WA0000001707
B1235593914106N00609226WA0000001700
B1236043914136N00609241WA0000001690
B1236093914165N00609257WA0000001685
B1236143914194N00609274WA0000001677
B1236193914224N00609288WA0000001672
B1236243914254N00609303WA0000001661
B1236293914284N00609323WA0000001652
B1236343914312N00609349WA0000001645
B1236393914336N00609377WA0000001632
B1236443914359N00609401WA0000001622
B1236493914385N00609420WA0000001607
B1236543914409N00609431WA0000001593
B1236593914433N00609443WA0000001583
B1237043914457N00609455WA0000001577
B1237093914485N00609470WA0000001572
B1237143914509N00609484WA0000001566
B1237193914534N00609498WA0000001557
B1237243914556N00609513WA0000001553
B1237293914576N00609528WA0000001545
B1237343914599N00609543WA0000001532
B1237393914623N00609561WA0000001522
B1237443914646N00609582WA0000001512
B1237493914668N00609601WA0000001505
B1237543914687N00609621WA0000001499
B1237593914708N00609642WA0000001493
B1238043914730N00609663WA0000001492
B1238093914778N00609685WA0000001488
B1238143914787N00609695WA0000001479
B1238193914809N00609710WA0000001470
B1238243914824N00609720WA0000001460
B1238293914848N00609728WA0000001462
B1238343914857N00609724WA0000001467
B1238393914878N00609723WA0000001454
B1238443914886N00609724WA0000001445
B1238493914914N00609698WA0000001437
B1238543914931N00609689WA0000001432
B1238593914901N00609635WA0000001425
B1239043914886N00609618WA0000001416
B1239093914859N00609621WA0000001408
B1239143914847N00609610WA0000001403
B1239193914850N00609675WA0000001402
B1239243914864N00609688WA0000001393
B1239293914884N00609704WA0000001390
B1239343914898N00609718WA0000001385
B1239393914920N00609732WA0000001382
B1239443914944N00609747WA0000001376
B1239493914969N00609766WA0000001369
B1239543914989N00609785WA0000001362
B1239593915012N00609792WA0000001345
B1240043915038N00609800WA0000001338
B1240093915062N00609807WA0000001329
B1240143915092N00609816WA0000001319
B1240193915118N00609821WA0000001314
B1240243915142N00609829WA0000001313
B1240293915166N00609823WA0000001317
B1240343915194N00609804WA0000001303
B1240393915222N00609788WA0000001304
B1240443915250N00609777WA0000001299
B1240493915276N00609768WA0000001297
B1240543915302N00609762WA0000001296
B1240593915330N00609759WA0000001292
B1241043915359N00609755WA0000001296
B1241093915381N00609732WA0000001291
B1241143915384N00609703WA0000001289
B1241193915368N00609667WA0000001289
B1241243915370N00609650WA0000001295
B1241293915339N00609701WA0000001298
B1241343915338N00609718WA0000001297
B1241393915352N00609744WA0000001294
B1241443915366N00609770WA0000001289
B1241493915400N00609719WA0000001289
B1241543915388N00609684WA0000001291
B1241593915365N00609672WA0000001293
B1242043915357N00609679WA0000001298
B1242093915349N00609699WA0000001295
B1242143915335N00609713WA0000001295
B1242193915321N00609727WA0000001299
B1242243915429N00609698WA0000001295
B1242293915447N00609660WA0000001295
B1242343915443N00609627WA0000001293
B1242393915423N00609618WA0000001293
B1242443915412N00609608WA0000001293
B1242493915405N00609601WA0000001293
B1242543915398N00609593WA0000001293
B1242593915404N00609669WA0000001292
B1243043915428N00609688WA0000001292
B1243093915453N00609702WA0000001296
B1243143915479N00609715WA0000001299
B1243193915509N00609729WA0000001298
B1243243915544N00609737WA0000001296
B1243293915572N00609746WA0000001292
B1243343915601N00609756WA0000001284
B1243393915630N00609767WA0000001274
B1243443915652N00609778WA0000001270
B1243493915676N00609792WA0000001261
B1243543915701N00609805WA0000001253
B1243593915727N00609820WA0000001244
B1244043915749N00609835WA0000001237
B1244093915771N00609847WA0000001232
B1244143915794N00609861WA0000001237
B1244193915816N00609875WA0000001238
B1244243915848N00609884WA0000001227
B1244293915889N00609896WA0000001219
B1244343915917N00609917WA0000001205
B1244393915944N00609936WA0000001188
B1244443915974N00609951WA0000001172
B1244493916003N00609965WA0000001153
B1244543916033N00609985WA0000001138
B1244593916059N00610004WA0000001122
B1245043916083N00610024WA0000001114
B1245093916111N00610039WA0000001107
B1245143916131N00610049WA0000001098
B1245193916155N00610059WA0000001093
B1245243916188N00610067WA0000001086
B1245293916220N00610072WA0000001084
B1245343916248N00610077WA0000001088
B1245393916273N00610089WA0000001093
B1245443916293N00610077WA0000001100
B1245493916286N00610045WA0000001107
B1245543916265N00610037WA0000001115
B1245593916245N00610052WA0000001121
B1246043916252N00610080WA0000001127
B1246093916277N00610091WA0000001132
B1246143916302N00610067WA0000001134
B1246193916313N00610032WA0000001135
B1246243916302N00610003WA0000001143
B1246293916283N00609984WA0000001150
B1246343916271N00610008WA0000001152
B1246393916282N00610034WA0000001154
B1246443916303N00610042WA0000001154
B1246493916319N00610057WA0000001148
B1246543916335N00610073WA0000001148
B1246593916352N00610088WA0000001147
B1247043916308N00609907WA0000001153
B1247093916295N00609883WA0000001159
B1247143916293N00609853WA0000001161
B1247193916292N00609823WA0000001172
B1247243916291N00609794WA0000001176
B1247293916384N00609872WA0000001178
B1247343916380N00609839WA0000001178
B1247393916368N00609825WA0000001189
B1247443916354N00609822WA0000001197
B1247493916334N00609827WA0000001209
B1247543916318N00609826WA0000001213
B1247593916321N00609852WA0000001211
B1248043916347N00609842WA0000001214
B1248093916359N00609807WA0000001212
B1248143916355N00609780WA0000001225
B1248193916343N00609749WA0000001233
B1248243916336N00609721WA0000001249
B1248293916329N00609694WA0000001254
B1248343916370N00609750WA0000001260
B1248393916349N00609736WA0000001266
B1248443916346N00609718WA0000001278
B1248493916342N00609701WA0000001284
B1248543916375N00609758WA0000001287
B1248593916376N00609750WA0000001294
B1249043916393N00609690WA0000001304
B1249093916398N00609664WA0000001312
B1249143916403N00609639WA0000001325
B1249193916390N00609704WA0000001333
B1249243916391N00609667WA0000001343
B1249293916377N00609650WA0000001347
B1249343916362N00609632WA0000001355
B1249393916347N00609613WA0000001362
B1249443916333N00609595WA0000001369
B1249493916318N00609577WA0000001370
B1249543916304N00609559WA0000001374
B1249593916367N00609704WA0000001380
B1250043916376N00609740WA0000001384
B1250093916399N00609762WA0000001386
B1250143916420N00609783WA0000001385
B1250193916441N00609804WA0000001391
B1250243916414N00609705WA0000001388
B1250293916385N00609686WA0000001387
B1250343916371N00609667WA0000001387
B1250393916356N00609647WA0000001383
B1250443916349N00609761WA0000001381
B1250493916385N00609811WA0000001372
B1250543916403N00609852WA0000001364
B1250593916419N00609890WA0000001356
B1251043916431N00609930WA0000001347
B1251093916437N00609973WA0000001332
B1251143916443N00610019WA0000001322
B1251193916458N00610028WA0000001312
B1251243916485N00610040WA0000001304
B1251293916514N00610054WA0000001293
B1251343916539N00610069WA0000001279
B1251393916563N00610086WA0000001259
B1251443916594N00610103WA0000001239
B1251493916621N00610117WA0000001220
B1251543916644N00610128WA0000001203
B1251593916662N00610139WA0000001183
B1252043916682N00610152WA0000001166
B1252093916704N00610163WA0000001147
B1252143916727N00610175WA0000001130
B1252193916756N00610188WA0000001110
B1252243916780N00610201WA0000001086
B1252293916801N00610216WA0000001065
B1252343916826N00610232WA0000001046
B1252393916854N00610246WA0000001026
B1252443916881N00610255WA0000001012
B1252493916910N00610257WA0000000990
B1252543916940N00610255WA0000000973
B1252593916970N00610251WA0000000956
B1253043917003N00610250WA0000000941
B1253093917034N00610249WA0000000932
B1253143917064N00610249WA0000000918
B1253193917097N00610253WA0000000906
B1253243917127N00610259WA0000000894
B1253293917160N00610263WA0000000881
B1253343917194N00610261WA0000000865
B1253393917227N00610256WA0000000853
B1253443917261N00610251WA0000000850
B1253493917299N00610245WA0000000851
B1253543917337N00610234WA0000000855
B1253593917373N00610230WA0000000854
B1254043917383N00610179WA0000000860
B1254093917412N00610165WA0000000869
B1254143917372N00610147WA0000000878
B1254193917393N00610137WA0000000888
B1254243917405N00610173WA0000000900
B1254293917425N00610173WA0000000909
B1254343917446N00610172WA0000000917
B1254393917402N00610153WA0000000923
B1254443917419N00610183WA0000000935
B1254493917449N00610182WA0000000947
B1254543917455N00610148WA0000000956
B1254593917444N00610138WA0000000964
B1255043917453N00610128WA0000000973
B1255093917450N00610195WA0000000984
B1255143917462N00610204WA0000000990
B1255193917493N00610191WA0000000999
B1255243917495N00610157WA0000001008
B1255293917487N00610138WA0000001024
B1255343917488N00610117WA0000001039
B1255393917489N00610096WA0000001049
B1255443917508N00610186WA0000001061
B1255493917528N00610162WA0000001072
B1255543917514N00610137WA0000001088
B1255593917493N00610147WA0000001100
B1256043917496N00610187WA0000001108
B1256093917529N00610195WA0000001122
B1256143917547N00610165WA0000001136
B1256193917531N00610168WA0000001152
B1256243917537N00610205WA0000001160
B1256293917571N00610212WA0000001176
B1256343917590N00610180WA0000001183
B1256393917576N00610152WA0000001196
B1256443917545N00610163WA0000001210
B1256493917526N00610146WA0000001228
B1256543917559N00610201WA0000001247
B1256593917587N00610181WA0000001264
B1257043917571N00610160WA0000001277
B1257093917556N00610150WA0000001298
B1257143917541N00610141WA0000001319
B1257193917526N00610132WA0000001340
B1257243917606N00610192WA0000001357
B1257293917589N00610183WA0000001378
B1257343917594N00610172WA0000001405
B1257393917599N00610162WA0000001429
B1257443917621N00610235WA0000001445
B1257493917615N00610206WA0000001469
B1257543917603N00610203WA0000001490
B1257593917591N00610200WA0000001521
B1258043917641N00610261WA0000001538
B1258093917660N00610234WA0000001555
B1258143917646N00610209WA0000001581
B1258193917636N00610208WA0000001601
B1258243917626N00610206WA0000001628
B1258293917675N00610237WA0000001655
B1258343917669N00610207WA0000001679
B1258393917676N00610205WA0000001702
B1258443917683N00610203WA0000001723
B1258493917695N00610254WA0000001756
B1258543917703N00610257WA0000001781
B1258593917710N00610260WA0000001804
B1259043917693N00610263WA0000001827
B1259093917714N00610262WA0000001855
B1259143917722N00610233WA0000001876
B1259193917703N00610226WA0000001900
B1259243917709N00610219WA0000001927
B1259293917715N00610212WA0000001950
B1259343917722N00610205WA0000001969
B1259393917716N00610227WA0000001991
B1259443917716N00610229WA0000002018
B1259493917716N00610230WA0000002036
B1259543917715N00610232WA0000002056
B1259593917715N00610233WA0000002069
B1300043917748N00610228WA0000002088
B1300093917728N00610229WA0000002111
B1300143917731N00610263WA0000002128
B1300193917760N00610276WA0000002148
B1300243917761N00610279WA0000002173
B1300293917762N00610282WA0000002191
B1300343917729N00610228WA0000002210
B1300393917714N00610234WA0000002229
B1300443917698N00610240WA0000002240
B1300493917755N00610272WA0000002261
B1300543917747N00610246WA0000002277
B1300593917728N00610240WA0000002291
B1301043917721N00610285WA0000002310
B1301093917723N00610315WA0000002332
B1301143917711N00610328WA0000002353
B1301193917776N00610293WA0000002363
B1301243917769N00610266WA0000002372
B1301293917747N00610271WA0000002384
B1301343917743N00610306WA0000002404
B1301393917762N00610328WA0000002426
B1301443917784N00610316WA0000002439
B1301493917797N00610318WA0000002449
B1301543917810N00610320WA0000002454
B1301593917824N00610323WA0000002481
B1302043917837N00610325WA0000002501
B1302093917850N00610327WA0000002515
B1302143917797N00610360WA0000002523
B1302193917801N00610374WA0000002529
B1302243917763N00610350WA0000002546
B1302293917768N00610376WA0000002560
B1302343917779N00610407WA0000002571
B1302393917787N00610436WA0000002576
B1302443917794N00610465WA0000002584
B1302493917802N00610494WA0000002590
B1302543917829N00610324WA0000002598
B1302593917825N00610290WA0000002605
B1303043917825N00610260WA0000002612
B1303093917823N00610232WA0000002618
B1303143917821N00610203WA0000002628
B1303193917818N00610175WA0000002647
B1303243917816N00610146WA0000002660
B1303293917843N00610350WA0000002671
B1303343917840N00610319WA0000002673
B1303393917816N00610334WA0000002674
B1303443917802N00610376WA0000002690
B1303493917803N00610413WA0000002702
B1303543917802N00610453WA0000002710
B1303593917832N00610474WA0000002716
B1304043917850N00610511WA0000002718
B1304093917869N00610548WA0000002720
B1304143917887N00610585WA0000002726
B1304193917905N00610622WA0000002731
B1304243917816N00610489WA0000002738
B1304293917827N00610525WA0000002743
B1304343917839N00610562WA0000002743
B1304393917853N00610596WA0000002745
B1304443917866N00610630WA0000002751
B1304493917883N00610668WA0000002751
B1304543917901N00610701WA0000002745
B1304593917917N00610734WA0000002739
B1305043917931N00610769WA0000002739
B1305093917944N00610802WA0000002743
B1305143917956N00610836WA0000002744
B1305193917967N00610873WA0000002738
B1305243917977N00610907WA0000002724
B1305293917990N00610941WA0000002712
B1305343918005N00610971WA0000002700
B1305393918016N00610999WA0000002691
B1305443918029N00611025WA0000002686
B1305493918046N00611058WA0000002674
B1305543918069N00611086WA0000002659
B1305593918088N00611110WA0000002659
B1306043918105N00611140WA0000002650
B1306093918119N00611172WA0000002644
B1306143918129N00611206WA0000002634
B1306193918147N00611238WA0000002618
B1306243918173N00611266WA0000002623
B1306293918196N00611295WA0000002638
B1306343918217N00611316WA0000002649
B1306393918240N00611315WA0000002653
B1306443918244N00611287WA0000002663
B1306493918222N00611283WA0000002673
B1306543918238N00611272WA0000002680
B1306593918254N00611261WA0000002693
B1307043918203N00611394WA0000002697
B1307093918209N00611430WA0000002709
B1307143918219N00611460WA0000002712
B1307193918228N00611490WA0000002716
B1307243918237N00611520WA0000002723
B1307293918201N00611423WA0000002726
B1307343918202N00611426WA0000002733
B1307393918199N00611490WA0000002738
B1307443918215N00611516WA0000002740
B1307493918237N00611545WA0000002741
B1307543918246N00611575WA0000002742
B1307593918267N00611604WA0000002731
B1308043918279N00611634WA0000002721
B1308093918294N00611665WA0000002719
B1308143918302N00611695WA0000002716
B1308193918315N00611723WA0000002705
B1308243918334N00611743WA0000002700
B1308293918341N00611777WA0000002700
B1308343918353N00611807WA0000002685
B1308393918361N00611840WA0000002672
B1308443918372N00611877WA0000002666
B1308493918381N00611885WA0000002661
B1308543918388N00611911WA0000002653
B1308593918389N00611942WA0000002640
B1309043918384N00611974WA0000002637
B1309093918393N00612007WA0000002628
B1309143918400N00612028WA0000002631
B1309193918412N00612048WA0000002630
B1309243918424N00612064WA0000002621
B1309293918443N00612091WA0000002614
B1309343918451N00612102WA0000002621
B1309393918469N00612107WA0000002615
B1309443918484N00612118WA0000002609
B1309493918492N00612136WA0000002606
B1309543918501N00612156WA0000002603
B1309593918510N00612179WA0000002594
B1310043918515N00612215WA0000002580
B1310093918519N00612238WA0000002560
B1310143918525N00612270WA0000002539
B1310193918535N00612300WA0000002522
B1310243918550N00612334WA0000002503
B1310293918565N00612364WA0000002498
B1310343918582N00612388WA0000002487
B1310393918602N00612413WA0000002473
B1310443918620N00612443WA0000002459
B1310493918634N00612477WA0000002444
B1310543918648N00612508WA0000002443
B1310593918663N00612539WA0000002440
B1311043918677N00612574WA0000002437
B1311093918689N00612613WA0000002433
B1311143918703N00612660WA0000002443
B1311193918712N00612695WA0000002442
B1311243918732N00612719WA0000002446
B1311293918751N00612743WA0000002451
B1311343918772N00612765WA0000002456
B1311393918796N00612786WA0000002465
B1311443918822N00612808WA0000002471
B1311493918844N00612826WA0000002478
B1311543918865N00612840WA0000002488
B1311593918888N00612853WA0000002490
B1312043918904N00612875WA0000002482
B1312093918923N00612897WA0000002473
B1312143918939N00612920WA0000002461
B1312193918959N00612941WA0000002457
B1312243918978N00612961WA0000002454
B1312293918996N00612984WA0000002447
B1312343919012N00613008WA0000002443
B1312393919027N00613032WA0000002432
B1312443919046N00613051WA0000002422
B1312493919068N00613068WA0000002413
B1312543919088N00613088WA0000002405
B1312593919108N00613114WA0000002398
B1313043919129N00613144WA0000002390
B1313093919147N00613171WA0000002383
B1313143919164N00613197WA0000002375
B1313193919180N00613223WA0000002366
B1313243919195N00613254WA0000002359
B1313293919212N00613284WA0000002353
B1313343919231N00613310WA0000002350
B1313393919248N00613331WA0000002351
B1313443919269N00613363WA0000002351
B1313493919289N00613389WA0000002360
B1313543919311N00613417WA0000002367
B1313593919333N00613446WA0000002372
B1314043919352N00613474WA0000002375
B1314093919372N00613510WA0000002376
B1314143919394N00613535WA0000002387
B1314193919411N00613565WA0000002382
B1314243919427N00613595WA0000002377
B1314293919367N00613550WA0000002378
B1314343919360N00613601WA0000002377
B1314393919377N00613627WA0000002374
B1314443919391N00613666WA0000002361
B1314493919412N00613694WA0000002344
B1314543919445N00613707WA0000002336
B1314593919466N00613731WA0000002317
B1315043919490N00613747WA0000002302
B1315093919513N00613768WA0000002285
B1315143919535N00613792WA0000002271
B1315193919553N00613815WA0000002258
B1315243919575N00613839WA0000002245
B1315293919594N00613860WA0000002234
B1315343919613N00613876WA0000002216
B1315393919628N00613898WA0000002199
B1315443919645N00613925WA0000002188
B1315493919657N00613954WA0000002178
B1315543919671N00613981WA0000002164
B1315593919687N00614003WA0000002157
B1316043919705N00614030WA0000002153
B1316093919720N00614058WA0000002144
B1316143919737N00614087WA0000002141
B1316193919755N00614109WA0000002146
B1316243919776N00614122WA0000002147
B1316293919791N00614145WA0000002150
B1316343919804N00614168WA0000002154
B1316393919822N00614191WA0000002160
B1316443919842N00614212WA0000002165
B1316493919862N00614233WA0000002179
B1316543919880N00614256WA0000002188
B1316593919898N00614280WA0000002198
B1317043919917N00614303WA0000002205
B1317093919935N00614326WA0000002216
B1317143919953N00614349WA0000002225
B1317193919891N00614200WA0000002235
B1317243919881N00614171WA0000002243
B1317293919858N00614175WA0000002252
B1317343919858N00614173WA0000002263
B1317393919858N00614232WA0000002273
B1317443919868N00614255WA0000002279
B1317493919881N00614281WA0000002298
B1317543919893N00614306WA0000002311
B1317593919906N00614330WA0000002324
B1318043919919N00614354WA0000002338
B1318093919871N00614259WA0000002350
B1318143919876N00614297WA0000002365
B1318193919892N00614310WA0000002380
B1318243919901N00614331WA0000002396
B1318293919909N00614352WA0000002409
B1318343919876N00614293WA0000002422
B1318393919888N00614315WA0000002434
B1318443919891N00614329WA0000002450
B1318493919894N00614343WA0000002464
B1318543919897N00614357WA0000002481
B1318593919867N00614312WA0000002493
B1319043919860N00614328WA0000002511
B1319093919853N00614344WA0000002523
B1319143919867N00614277WA0000002539
B1319193919855N00614280WA0000002553
B1319243919844N00614283WA0000002567
B1319293919879N00614317WA0000002584
B1319343919863N00614287WA0000002600
B1319393919842N00614298WA0000002616
B1319443919844N00614325WA0000002630
B1319493919867N00614353WA0000002645
B1319543919879N00614330WA0000002658
B1319593919854N00614304WA0000002675
B1320043919845N00614298WA0000002689
B1320093919837N00614291WA0000002704
B1320143919869N00614372WA0000002719
B1320193919883N00614344WA0000002731
B1320243919872N00614319WA0000002748
B1320293919838N00614324WA0000002756
B1320343919832N00614370WA0000002768
B1320393919851N00614390WA0000002781
B1320443919882N00614395WA0000002789
B1320493919893N00614413WA0000002799
B1320543919904N00614430WA0000002815
B1320593919915N00614447WA0000002828
B1321043919871N00614407WA0000002839
B1321093919884N00614439WA0000002845
B1321143919897N00614472WA0000002855
B1321193919910N00614504WA0000002866
B1321243919923N00614536WA0000002880
B1321293919936N00614568WA0000002887
B1321343919913N00614420WA0000002895
B1321393919926N00614433WA0000002902
B1321443919939N00614447WA0000002913
B1321493919952N00614461WA0000002920
B1321543919885N00614420WA0000002926
B1321593919908N00614444WA0000002930
B1322043919934N00614462WA0000002937
B1322093919960N00614474WA0000002954
B1322143919983N00614484WA0000002968
B1322193920007N00614494WA0000002978
B1322243919963N00614436WA0000002993
B1322293919958N00614475WA0000003009
B1322343919985N00614486WA0000003023
B1322393920010N00614496WA0000003031
B1322443920036N00614505WA0000003035
B1322493920061N00614515WA0000003033
B1322543920086N00614524WA0000003044
B1322593920112N00614533WA0000003056
B1323043919998N00614515WA0000003069
B1323093920028N00614531WA0000003078
B1323143920052N00614554WA0000003075
B1323193920077N00614578WA0000003073
B1323243920007N00614503WA0000003067
B1323293920017N00614515WA0000003072
B1323343920026N00614582WA0000003072
B1323393920062N00614597WA0000003066
B1323443920085N00614619WA0000003066
B1323493920106N00614644WA0000003063
B1323543920129N00614669WA0000003061
B1323593920149N00614688WA0000003060
B1324043920169N00614706WA0000003061
B1324093920187N00614727WA0000003066
B1324143920205N00614751WA0000003065
B1324193920223N00614776WA0000003066
B1324243920243N00614801WA0000003071
B1324293920265N00614823WA0000003074
B1324343920290N00614843WA0000003070
B1324393920314N00614870WA0000003067
B1324443920336N00614897WA0000003057
B1324493920361N00614927WA0000003044
B1324543920383N00614955WA0000003042
B1324593920401N00614979WA0000003035
B1325043920421N00615006WA0000003030
B1325103920442N00615046WA0000003031
B1325153920459N00615081WA0000003024
B1325203920477N00615114WA0000003019
B1325253920498N00615138WA0000003006
B1325303920519N00615160WA0000003003
B1325353920539N00615182WA0000002996
B1325403920559N00615205WA0000002991
B1325453920576N00615230WA0000002984
B1325503920597N00615252WA0000002968
B1325553920617N00615278WA0000002957
B1326003920636N00615309WA0000002940
B1326053920652N00615340WA0000002929
B1326103920668N00615367WA0000002914
B1326153920682N00615398WA0000002899
B1326203920700N00615424WA0000002884
B1326253920716N00615447WA0000002877
B1326303920734N00615476WA0000002865
B1326353920750N00615497WA0000002853
B1326403920764N00615520WA0000002856
B1326453920772N00615543WA0000002851
B1326503920776N00615560WA0000002858
B1326553920784N00615576WA0000002861
B1327003920788N00615597WA0000002863
B1327053920791N00615619WA0000002869
B1327103920807N00615634WA0000002873
B1327153920818N00615645WA0000002890
B1327203920830N00615652WA0000002892
B1327253920845N00615660WA0000002901
B1327303920862N00615674WA0000002905
B1327353920879N00615686WA0000002911
B1327403920892N00615695WA0000002917
B1327453920912N00615711WA0000002922
B1327503920928N00615730WA0000002934
B1327553920952N00615727WA0000002945
B1328003920976N00615737WA0000002956
B1328053920999N00615746WA0000002958
B1328103920904N00615678WA0000002963
B1328153920887N00615702WA0000002969
B1328203920890N00615723WA0000002971
B1328253920920N00615740WA0000002977
B1328303920937N00615763WA0000002986
B1328363920958N00615781WA0000003001
B1328413920977N00615792WA0000003014
B1328463920996N00615802WA0000003023
B1328513921014N00615814WA0000003033
B1328563921027N00615826WA0000003043
B1329013921048N00615829WA0000003051
B1329063921060N00615843WA0000003062
B1329113921072N00615859WA0000003073
B1329163921086N00615867WA0000003088
B1329213921102N00615874WA0000003097
B1329263921119N00615886WA0000003109
B1329313921136N00615900WA0000003118
B1329363921153N00615913WA0000003131
B1329413921171N00615925WA0000003151
B1329463921194N00615938WA0000003161
B1329513921207N00615912WA0000003169
B1329563921221N00615918WA0000003176
B1330013921148N00615904WA0000003188
B1330063921140N00615933WA0000003209
B1330113921147N00615955WA0000003219
B1330163921164N00615982WA0000003226
B1330213921180N00616008WA0000003230
B1330263921194N00616033WA0000003235
B1330313921211N00616055WA0000003240
B1330363921226N00616081WA0000003250
B1330413921240N00616106WA0000003262
B1330463921254N00616131WA0000003272
B1330513921267N00616156WA0000003282
B1330563921280N00616181WA0000003290
B1331013921270N00616105WA0000003289
B1331063921249N00616136WA0000003290
B1331113921240N00616175WA0000003294
B1331163921252N00616204WA0000003305
B1331213921269N00616231WA0000003307
B1331263921294N00616255WA0000003312
B1331313921318N00616277WA0000003320
B1331363921347N00616289WA0000003332
B1331413921377N00616297WA0000003346
B1331463921407N00616306WA0000003362
B1331513921437N00616314WA0000003372
B1331563921352N00616259WA0000003376
B1332013921380N00616281WA0000003398
B1332063921398N00616270WA0000003406
B1332113921416N00616230WA0000003418
B1332163921437N00616230WA0000003430
B1332213921370N00616233WA0000003439
B1332263921378N00616264WA0000003457
B1332313921408N00616256WA0000003460
B1332363921430N00616266WA0000003468
B1332413921373N00616203WA0000003476
B1332463921385N00616209WA0000003486
B1332513921372N00616264WA0000003497
B1332563921393N00616277WA0000003503
B1333013921410N00616286WA0000003507
B1333063921430N00616293WA0000003515
B1333113921424N00616231WA0000003516
B1333163921441N00616226WA0000003527
B1333213921372N00616206WA0000003530
B1333263921373N00616202WA0000003534
B1333313921386N00616274WA0000003537
B1333363921397N00616290WA0000003535
B1333413921413N00616311WA0000003540
B1333463921428N00616335WA0000003543
B1333513921446N00616358WA0000003557
B1333563921467N00616376WA0000003561
B1334013921489N00616377WA0000003565
B1334063921504N00616394WA0000003578
B1334113921521N00616400WA0000003586
B1334163921525N00616367WA0000003596
B1334213921503N00616344WA0000003610
B1334263921511N00616349WA0000003620
B1334313921477N00616404WA0000003626
B1334363921492N00616424WA0000003628
B1334413921504N00616459WA0000003636
B1334463921512N00616491WA0000003649
B1334513921524N00616521WA0000003666
B1334563921533N00616548WA0000003677
B1335013921546N00616490WA0000003687
B1335063921515N00616491WA0000003698
B1335113921506N00616533WA0000003706
B1335163921513N00616559WA0000003722
B1335213921526N00616597WA0000003733
B1335263921539N00616616WA0000003747
B1335313921551N00616635WA0000003759
B1335363921534N00616538WA0000003768
B1335413921510N00616550WA0000003782
B1335463921492N00616595WA0000003790
B1335513921492N00616634WA0000003800
B1335563921501N00616666WA0000003812
B1336013921524N00616699WA0000003819
B1336063921534N00616726WA0000003823
B1336113921544N00616753WA0000003830
B1336163921553N00616780WA0000003843
B1336213921507N00616669WA0000003851
B1336263921506N00616679WA0000003859
B1336313921515N00616745WA0000003863
B1336363921545N00616772WA0000003873
B1336413921567N00616790WA0000003875
B1336463921592N00616810WA0000003877
B1336513921616N00616835WA0000003878
B1336563921634N00616863WA0000003890
B1337013921653N00616889WA0000003899
B1337063921674N00616915WA0000003904
B1337113921667N00616875WA0000003900
B1337163921633N00616894WA0000003894
B1337213921639N00616908WA0000003895
B1337263921619N00616981WA0000003895
B1337313921635N00617014WA0000003899
B1337363921655N00617047WA0000003898
B1337413921675N00617090WA0000003897
B1337463921694N00617133WA0000003898
B1337513921719N00617182WA0000003890
B1337563921735N00617228WA0000003880
B1338013921752N00617272WA0000003873
B1338063921768N00617318WA0000003864
B1338113921785N00617369WA0000003847
B1338163921801N00617422WA0000003832
B1338213921818N00617478WA0000003812
B1338263921836N00617528WA0000003788
B1338313921852N00617578WA0000003777
B1338363921866N00617609WA0000003764
B1338413921884N00617655WA0000003752
B1338463921903N00617703WA0000003748
B1338513921924N00617747WA0000003732
B1338563921943N00617787WA0000003731
B1339013921964N00617827WA0000003723
B1339063921987N00617869WA0000003715
B1339113922007N00617910WA0000003710
B1339163922027N00617948WA0000003701
B1339213922050N00617980WA0000003693
B1339263922078N00618006WA0000003683
B1339313922097N00618032WA0000003664
B1339363922125N00618064WA0000003653
B1339413922149N00618090WA0000003633
B1339463922173N00618122WA0000003617
B1339513922196N00618157WA0000003601
B1339563922222N00618191WA0000003592
B1340013922243N00618219WA0000003581
B1340063922266N00618252WA0000003566
B1340113922283N00618281WA0000003564
B1340163922288N00618303WA0000003551
B1340213922312N00618324WA0000003527
B1340263922336N00618336WA0000003511
B1340313922360N00618351WA0000003493
B1340363922380N00618373WA0000003473
B1340413922396N00618398WA0000003467
B1340503922429N00618437WA0000003453
B1340553922450N00618461WA0000003445
B1341003922472N00618488WA0000003440
B1341053922494N00618517WA0000003433
B1341103922513N00618550WA0000003428
B1341153922530N00618584WA0000003422
B1341203922547N00618618WA0000003416
B1341253922565N00618654WA0000003402
B1341303922586N00618693WA0000003396
B1341353922605N00618732WA0000003398
B1341403922625N00618772WA0000003397
B1341453922637N00618807WA0000003395
B1341503922648N00618831WA0000003395
B1341553922657N00618856WA0000003385
B1342003922668N00618882WA0000003372
B1342053922682N00618906WA0000003361
B1342103922701N00618926WA0000003351
B1342153922720N00618943WA0000003340
B1342203922736N00618960WA0000003330
B1342253922752N00618975WA0000003317
B1342303922770N00618992WA0000003305
B1342353922786N00619014WA0000003291
B1342403922800N00619035WA0000003278
B1342453922817N00619059WA0000003266
B1342503922835N00619083WA0000003256
B1342553922854N00619106WA0000003244
B1343003922871N00619126WA0000003234
B1343053922889N00619144WA0000003224
B1343103922910N00619164WA0000003211
B1343153922932N00619181WA0000003193
B1343203922955N00619198WA0000003177
B1343253922979N00619212WA0000003165
B1343303923004N00619223WA0000003156
B1343353923032N00619230WA0000003150
B1343403923053N00619248WA0000003143
B1343453923075N00619266WA0000003143
B1343503923092N00619284WA0000003147
B1343553923106N00619295WA0000003140
B1344003923121N00619312WA0000003128
B1344053923139N00619334WA0000003115
B1344103923156N00619356WA0000003103
B1344153923171N00619376WA0000003091
B1344203923185N00619396WA0000003078
B1344253923199N00619413WA0000003069
B1344303923215N00619430WA0000003054
B1344353923234N00619441WA0000003040
B1344403923255N00619454WA0000003026
B1344453923275N00619472WA0000003015
B1344503923297N00619496WA0000003000
B1344553923321N00619517WA0000002986
B1345003923344N00619539WA0000002968
B1345053923364N00619565WA0000002949
B1345103923382N00619592WA0000002932
B1345153923402N00619616WA0000002913
B1345203923422N00619637WA0000002898
B1345253923442N00619658WA0000002882
B1345303923463N00619679WA0000002867
B1345353923483N00619701WA0000002851
B1345403923503N00619720WA0000002835
B1345453923524N00619738WA0000002820
B1345503923544N00619760WA0000002807
B1345553923563N00619784WA0000002794
B1346003923582N00619805WA0000002780
B1346053923602N00619830WA0000002765
B1346103923621N00619859WA0000002749
B1346153923640N00619885WA0000002737
B1346203923656N00619911WA0000002722
B1346253923673N00619938WA0000002705
B1346303923689N00619965WA0000002687
B1346353923706N00619993WA0000002680
B1346403923725N00620017WA0000002669
B1346453923743N00620039WA0000002662
B1346503923760N00620062WA0000002653
B1346553923779N00620081WA0000002648
B1347003923796N00620100WA0000002645
B1347053923812N00620121WA0000002638
B1347103923827N00620145WA0000002627
B1347153923838N00620171WA0000002614
B1347203923848N00620201WA0000002599
B1347253923858N00620232WA0000002588
B1347303923868N00620259WA0000002571
B1347353923880N00620285WA0000002559
B1347403923895N00620313WA0000002541
B1347453923909N00620337WA0000002537
B1347503923921N00620365WA0000002528
B1347553923935N00620389WA0000002519
B1348003923950N00620413WA0000002513
B1348053923966N00620438WA0000002505
B1348103923984N00620462WA0000002498
B1348153924002N00620488WA0000002495
B1348203924023N00620516WA0000002487
B1348253924046N00620538WA0000002480
B1348303924071N00620557WA0000002468
B1348353924092N00620577WA0000002464
B1348403924111N00620594WA0000002455
B1348453924130N00620614WA0000002446
B1348503924148N00620635WA0000002438
B1348553924166N00620656WA0000002430
B1349003924185N00620677WA0000002433
B1349053924203N00620698WA0000002425
B1349103924226N00620722WA0000002414
B1349153924249N00620742WA0000002410
B1349203924271N00620763WA0000002402
B1349253924293N00620784WA0000002392
B1349303924313N00620797WA0000002381
B1349353924338N00620806WA0000002376
B1349403924363N00620821WA0000002363
B1349453924387N00620835WA0000002346
B1349503924409N00620845WA0000002322
B1349553924432N00620852WA0000002295
B1350003924456N00620859WA0000002274
B1350053924478N00620862WA0000002250
B1350103924503N00620860WA0000002229
B1350153924525N00620881WA0000002212
B1350203924554N00620920WA0000002197
B1350253924575N00620945WA0000002190
B1350303924591N00620978WA0000002163
B1350353924611N00621010WA0000002139
B1350403924632N00621043WA0000002117
B1350493924684N00621095WA0000002079
B1350543924702N00621124WA0000002066
B1350593924724N00621152WA0000002061
B1351043924750N00621184WA0000002053
B1351093924772N00621215WA0000002044
B1351143924793N00621256WA0000002032
B1351193924809N00621298WA0000002026
B1351243924822N00621343WA0000002019
B1351293924833N00621383WA0000002006
B1351343924846N00621426WA0000001984
B1351393924866N00621469WA0000001966
B1351443924884N00621508WA0000001956
B1351493924902N00621547WA0000001940
B1351543924923N00621586WA0000001933
B1351593924945N00621622WA0000001927
B1352043924962N00621655WA0000001910
B1352093924975N00621695WA0000001897
B1352143924985N00621734WA0000001884
B1352193924996N00621768WA0000001872
B1352243925003N00621804WA0000001862
B1352293925004N00621842WA0000001845
B1352343925001N00621873WA0000001830
B1352393925009N00621901WA0000001809
B1352443925014N00621934WA0000001790
B1352493925016N00621968WA0000001775
B1352543925019N00622000WA0000001750
B1352593925024N00622034WA0000001737
B1353043925029N00622066WA0000001726
B1353093925031N00622103WA0000001710
B1353143925032N00622141WA0000001691
B1353193925032N00622180WA0000001675
B1353243925029N00622218WA0000001658
B1353293925030N00622255WA0000001638
B1353343925038N00622290WA0000001619
B1353393925044N00622322WA0000001603
B1353443925050N00622356WA0000001588
B1353493925052N00622393WA0000001574
B1353543925037N00622427WA0000001562
B1353593925029N00622458WA0000001544
B1354043925023N00622486WA0000001526
B1354093925020N00622516WA0000001502
B1354143925022N00622549WA0000001483
B1354193925023N00622581WA0000001468
B1354243925019N00622617WA0000001453
B1354293925011N00622653WA0000001433
B1354343924999N00622690WA0000001416
B1354393924979N00622723WA0000001399
B1354443924955N00622759WA0000001380
B1354493924930N00622794WA0000001361
B1354543924903N00622816WA0000001346
B1354593924879N00622839WA0000001332
B1355043924857N00622864WA0000001320
B1355093924832N00622888WA0000001301
B1355143924805N00622916WA0000001274
B1355193924778N00622944WA0000001269
B1355243924766N00622821WA0000001253
B1355293924751N00622794WA0000001238
B1355343924736N00622763WA0000001220
B1355393924722N00622734WA0000001207
B1355443924705N00622705WA0000001188
B1355493924691N00622673WA0000001170
B1355543924688N00622642WA0000001148
B1355593924693N00622624WA0000001128
B1356043924704N00622617WA0000001108
B1356093924718N00622603WA0000001093
B1356143924727N00622580WA0000001072
B1356193924727N00622549WA0000001057
B1356243924725N00622517WA0000001037
B1356293924720N00622487WA0000001015
B1356343924719N00622459WA0000001000
B1356393924722N00622431WA0000000984
B1356443924719N00622402WA0000000972
B1356493924710N00622370WA0000000958
B1356543924705N00622341WA0000000943
B1356593924703N00622312WA0000000926
B1357043924703N00622278WA0000000920
B1357093924705N00622243WA0000000909
B1357143924707N00622211WA0000000902
B1357193924710N00622179WA0000000898
B1357243924713N00622137WA0000000886
B1357293924714N00622100WA0000000880
B1357343924718N00622069WA0000000868
B1357393924723N00622041WA0000000854
B1357443924724N00622009WA0000000834
B1357493924714N00621973WA0000000818
B1357543924701N00621935WA0000000802
B1357593924687N00621897WA0000000786
B1358043924672N00621863WA0000000760
B1358093924648N00621833WA0000000742
B1358143924631N00621794WA0000000721
B1358193924613N00621753WA0000000707
B1358243924595N00621711WA0000000691
B1358293924574N00621673WA0000000678
B1358343924552N00621639WA0000000677
B1358393924526N00621604WA0000000671
B1358443924501N00621570WA0000000677
B1358493924484N00621537WA0000000682
B1358543924477N00621485WA0000000687
B1358593924502N00621488WA0000000686
B1359043924505N00621470WA0000000690
B1359093924510N00621539WA0000000696
B1359143924507N00621526WA0000000706
B1359193924476N00621514WA0000000710
B1359243924477N00621518WA0000000714
B1359293924478N00621522WA0000000714
B1359343924471N00621537WA0000000728
B1359393924469N00621504WA0000000733
B1359443924470N00621481WA0000000739
B1359493924472N00621459WA0000000746
B1359543924474N00621436WA0000000749
B1359593924476N00621413WA0000000752
B1400043924387N00621493WA0000000760
B1400093924365N00621473WA0000000761
B1400143924343N00621453WA0000000761
B1400193924375N00621540WA0000000755
B1400243924387N00621531WA0000000753
B1400293924416N00621531WA0000000763
B1400343924432N00621532WA0000000772
B1400393924451N00621526WA0000000786
B1400443924420N00621504WA0000000799
B1400493924398N00621535WA0000000807
B1400543924410N00621560WA0000000813
B1400593924431N00621542WA0000000815
B1401043924440N00621518WA0000000830
B1401093924434N00621487WA0000000844
B1401143924403N00621502WA0000000854
B1401193924407N00621530WA0000000868
B1401243924424N00621519WA0000000873
B1401293924413N00621485WA0000000877
B1401343924388N00621466WA0000000889
B1401393924358N00621462WA0000000897
B1401443924330N00621475WA0000000905
B1401493924376N00621488WA0000000907
B1401543924358N00621497WA0000000910
B1401593924353N00621431WA0000000918
B1402043924329N00621421WA0000000920
B1402093924302N00621423WA0000000918
B1402143924262N00621417WA0000000922
B1402193924227N00621415WA0000000932
B1402243924188N00621420WA0000000932
B1402293924202N00621454WA0000000943
B1402343924176N00621452WA0000000955
B1402393924214N00621426WA0000000958
B1402443924188N00621414WA0000000968
B1402493924171N00621408WA0000000978
B1402543924184N00621454WA0000000989
B1402593924189N00621441WA0000000996
B1403043924197N00621409WA0000000998
B1403093924174N00621386WA0000001006
B1403143924148N00621397WA0000001012
B1403193924140N00621388WA0000001018
B1403243924164N00621431WA0000001021
B1403293924174N00621443WA0000001035
B1403343924186N00621455WA0000001042
B1403393924181N00621403WA0000001045
B1403443924187N00621405WA0000001047
B1403493924136N00621409WA0000001055
B1403543924147N00621414WA0000001063
B1403593924160N00621418WA0000001074
B1404043924173N00621418WA0000001079
B1404093924186N00621418WA0000001080
B1404143924198N00621418WA0000001083
B1404193924121N00621375WA0000001088
B1404243924126N00621390WA0000001097
B1404293924139N00621399WA0000001099
B1404343924152N00621390WA0000001098
B1404393924170N00621374WA0000001102
B1404443924189N00621343WA0000001102
B1404493924203N00621294WA0000001104
B1404543924221N00621263WA0000001105
B1404593924239N00621231WA0000001104
B1405043924112N00621216WA0000001107
B1405093924079N00621200WA0000001105
B1405143924044N00621215WA0000001102
B1405193924035N00621240WA0000001097
B1405243924039N00621269WA0000001095
B1405293924055N00621275WA0000001091
B1405343924065N00621285WA0000001092
B1405393924074N00621290WA0000001097
B1405443924102N00621273WA0000001101
B1405493924121N00621267WA0000001099
B1405543924139N00621254WA0000001092
B1405593924150N00621235WA0000001084
B1406043924126N00621218WA0000001084
B1406093924136N00621203WA0000001076
B1406143924096N00621251WA0000001068
B1406193924103N00621268WA0000001060
B1406243924116N00621289WA0000001053
B1406293924129N00621305WA0000001051
B1406343924147N00621317WA0000001050
B1406393924168N00621321WA0000001050
B1406443924185N00621329WA0000001048
B1406493924201N00621335WA0000001047
B1406543924218N00621333WA0000001047
B1406593924235N00621329WA0000001052
B1407043924257N00621326WA0000001051
B1407093924284N00621334WA0000001043
B1407143924305N00621340WA0000001028
B1407193924320N00621352WA0000001019
B1407243924336N00621364WA0000001009
B1407293924360N00621376WA0000000999
B1407343924383N00621388WA0000000985
B1407393924401N00621362WA0000000973
B1407443924415N00621365WA0000000961
B1407493924439N00621371WA0000000943
B1407543924462N00621374WA0000000931
B1407593924483N00621366WA0000000924
B1408043924496N00621346WA0000000912
B1408093924506N00621321WA0000000903
B1408143924507N00621288WA0000000892
B1408193924510N00621257WA0000000871
B1408243924507N00621222WA0000000854
B1408293924491N00621195WA0000000845
B1408343924494N00621166WA0000000829
B1408393924431N00621139WA0000000810
B1408443924398N00621115WA0000000802
B1408493924368N00621092WA0000000797
B1408543924338N00621070WA0000000795
B1408593924306N00621043WA0000000789
B1409043924275N00621017WA0000000784
B1409093924244N00620996WA0000000769
B1409143924212N00620978WA0000000753
B1409193924170N00620958WA0000000752
B1409243924126N00620942WA0000000752
B1409293924086N00620924WA0000000752
B1409343924044N00620907WA0000000749
B1409393924005N00620891WA0000000745
B1409443923965N00620879WA0000000741
B1409493923934N00620855WA0000000747
B1409543923897N00620845WA0000000747
B1409593923855N00620842WA0000000744
B1410043923814N00620839WA0000000742
B1410093923883N00620870WA0000000742
B1410143923884N00620852WA0000000738
B1410193923886N00620829WA0000000726
B1410243923891N00620810WA0000000725
B1410293923908N00620807WA0000000722
B1410343923916N00620807WA0000000727
B1410393923930N00620822WA0000000730
B1410443923932N00620834WA0000000732
B1410493923931N00620810WA0000000728
B1410543923892N00620794WA0000000729
B1411033923848N00620850WA0000000733
B1411083923827N00620882WA0000000731
B1411133923806N00620913WA0000000732
B1411183923911N00620823WA0000000732
B1411233923931N00620822WA0000000731
B1411283923932N00620789WA0000000722
B1411333923920N00620747WA0000000714
B1411383923921N00620712WA0000000704
B1411433923922N00620678WA0000000710
B1411483923821N00620721WA0000000723
B1411533923799N00620700WA0000000727
B1411583923786N00620743WA0000000731
B1412033923795N00620755WA0000000745
B1412083923778N00620756WA0000000752
B1412133923761N00620756WA0000000761
B1412183923759N00620717WA0000000766
B1412233923752N00620741WA0000000774
B1412283923735N00620750WA0000000785
B1412333923717N00620759WA0000000795
B1412383923731N00620704WA0000000799
B1412433923729N00620730WA0000000808
B1412483923724N00620737WA0000000819
B1412533923711N00620735WA0000000827
B1412583923699N00620733WA0000000832
B1413033923674N00620712WA0000000846
B1413083923687N00620730WA0000000856
B1413133923678N00620720WA0000000864
B1413183923681N00620682WA0000000873
B1413233923648N00620670WA0000000879
B1413283923633N00620697WA0000000888
B1413333923644N00620707WA0000000900
B1413383923649N00620697WA0000000914
B1413433923627N00620658WA0000000915
B1413483923608N00620648WA0000000923
B1413533923590N00620638WA0000000937
B1413583923571N00620628WA0000000947
B1414033923553N00620617WA0000000954
B1414083923534N00620607WA0000000957
B1414133923558N00620647WA0000000971
B1414183923532N00620629WA0000000984
B1414233923550N00620603WA0000000994
B1414283923549N00620590WA0000001010
B1414333923569N00620564WA0000001027
B1414383923565N00620543WA0000001038
B1414433923562N00620521WA0000001049
B1414483923558N00620499WA0000001061
B1414533923554N00620478WA0000001078
B1414583923551N00620456WA0000001093
B1415033923538N00620575WA0000001110
B1415083923537N00620565WA0000001121
B1415133923535N00620555WA0000001133
B1415183923519N00620639WA0000001154
B1415233923518N00620637WA0000001164
B1415283923517N00620634WA0000001171
B1415333923505N00620560WA0000001191
B1415383923474N00620535WA0000001216
B1415433923454N00620529WA0000001243
B1415483923440N00620561WA0000001257
B1415533923425N00620565WA0000001277
B1415583923409N00620569WA0000001300
B1416033923440N00620506WA0000001331
B1416083923421N00620521WA0000001356
B1416133923401N00620521WA0000001384
B1416183923380N00620520WA0000001406
B1416233923360N00620519WA0000001427
B1416283923340N00620518WA0000001457
B1416333923407N00620501WA0000001477
B1416383923402N00620502WA0000001500
B1416433923397N00620504WA0000001523
B1416483923392N00620506WA0000001549
B1416533923425N00620424WA0000001587
B1416583923423N00620404WA0000001606
B1417033923420N00620384WA0000001638
B1417083923411N00620475WA0000001667
B1417133923439N00620465WA0000001689
B1417183923434N00620434WA0000001731
B1417233923421N00620423WA0000001762
B1417283923420N00620456WA0000001788
B1417333923444N00620463WA0000001813
B1417383923459N00620466WA0000001849
B1417433923450N00620422WA0000001883
B1417483923460N00620414WA0000001912
B1417533923470N00620407WA0000001942
B1417583923481N00620399WA0000001972
B1418033923491N00620392WA0000002015
B1418083923494N00620436WA0000002048
B1418133923504N00620424WA0000002081
B1418183923514N00620412WA0000002115
B1418233923523N00620400WA0000002145
B1418283923495N00620464WA0000002184
B1418333923509N00620457WA0000002210
B1418383923524N00620450WA0000002244
B1418433923472N00620504WA0000002275
B1418483923492N00620494WA0000002304
B1418533923473N00620476WA0000002335
B1418583923487N00620467WA0000002366
B1419033923479N00620540WA0000002395
B1419083923489N00620513WA0000002413
B1419133923472N00620507WA0000002438
B1419183923478N00620499WA0000002475
B1419233923483N00620491WA0000002508
B1419283923457N00620565WA0000002532
B1419333923461N00620558WA0000002561
B1419383923465N00620551WA0000002586
B1419433923469N00620543WA0000002625
B1419483923395N00620579WA0000002651
B1419533923404N00620597WA0000002673
B1419583923396N00620601WA0000002695
B1420033923444N00620556WA0000002727
B1420083923440N00620536WA0000002760
B1420133923435N00620519WA0000002789
B1420183923430N00620501WA0000002816
B1420233923425N00620484WA0000002837
B1420283923420N00620467WA0000002862
B1420333923462N00620567WA0000002894
B1420383923470N00620551WA0000002923
B1420433923438N00620561WA0000002953
B1420523923439N00620647WA0000003013
B1420573923444N00620694WA0000003038
B1421023923449N00620741WA0000003072
B1421073923449N00620584WA0000003098
B1421123923438N00620625WA0000003128
B1421173923452N00620652WA0000003159
B1421223923449N00620656WA0000003189
B1421273923446N00620659WA0000003213
B1421323923443N00620662WA0000003241
B1421373923440N00620666WA0000003266
B1421423923445N00620740WA0000003292
B1421473923439N00620756WA0000003315
B1421523923433N00620772WA0000003334
B1421573923426N00620789WA0000003362
B1422023923411N00620698WA0000003389
B1422073923394N00620696WA0000003408
B1422123923390N00620783WA0000003430
B1422173923405N00620809WA0000003440
B1422223923397N00620821WA0000003454
B1422273923389N00620834WA0000003475
B1422323923381N00620847WA0000003496
B1422373923374N00620859WA0000003528
B1422423923366N00620872WA0000003549
B1422473923358N00620884WA0000003564
B1422523923461N00620792WA0000003588
B1422573923450N00620773WA0000003615
B1423023923434N00620764WA0000003631
B1423073923442N00620759WA0000003661
B1423123923409N00620823WA0000003674
B1423173923423N00620847WA0000003696
B1423223923428N00620854WA0000003716
B1423273923432N00620861WA0000003735
B1423323923434N00620810WA0000003754
B1423373923439N00620821WA0000003773
B1423423923445N00620832WA0000003792
B1423473923450N00620843WA0000003804
B1423523923456N00620853WA0000003816
B1423573923398N00620871WA0000003830
B1424023923402N00620880WA0000003846
B1424073923406N00620890WA0000003866
B1424123923425N00620976WA0000003880
B1424173923392N00621007WA0000003885
B1424223923383N00621037WA0000003890
B1424273923374N00621067WA0000003892
B1424323923365N00621097WA0000003905
B1424373923356N00621128WA0000003921
B1424423923480N00620999WA0000003928
B1424473923480N00621053WA0000003938
B1424523923459N00621064WA0000003938
B1424573923458N00621092WA0000003950
B1425023923457N00621120WA0000003952
B1425073923508N00621038WA0000003956
B1425123923533N00621056WA0000003961
B1425173923570N00621073WA0000003966
B1425223923596N00621096WA0000003964
B1425273923629N00621125WA0000003950
B1425323923659N00621157WA0000003942
B1425373923688N00621191WA0000003927
B1425423923709N00621228WA0000003934
B1425473923740N00621273WA0000003932
B1425523923771N00621311WA0000003930
B1425573923802N00621349WA0000003918
B1426023923833N00621387WA0000003918
B1426073923864N00621425WA0000003915
B1426123923895N00621462WA0000003913
B1426173923760N00621185WA0000003897
B1426223923754N00621164WA0000003882
B1426273923714N00621153WA0000003868
B1426323923689N00621146WA0000003848
B1426373923675N00621130WA0000003835
B1426423923657N00621107WA0000003828
B1426473923642N00621085WA0000003823
B1426523923624N00621062WA0000003816
B1426573923602N00621041WA0000003821
B1427023923581N00621023WA0000003825
B1427073923561N00621006WA0000003827
B1427123923544N00620986WA0000003832
B1427173923524N00620964WA0000003830
B1427223923504N00620942WA0000003832
B1427273923484N00620915WA0000003830
B1427323923466N00620889WA0000003826
B1427373923449N00620866WA0000003814
B1427423923431N00620842WA0000003809
B1427473923410N00620812WA0000003802
B1427523923387N00620782WA0000003790
B1427573923369N00620756WA0000003788
B1428023923339N00620728WA0000003791
B1428073923321N00620706WA0000003791
B1428123923295N00620687WA0000003786
B1428173923272N00620672WA0000003796
B1428223923247N00620655WA0000003796
B1428273923225N00620641WA0000003800
B1428323923201N00620624WA0000003799
B1428373923176N00620604WA0000003790
B1428423923166N00620582WA0000003788
B1428473923151N00620560WA0000003798
B1428523923134N00620537WA0000003803
B1428573923117N00620514WA0000003806
B1429023923100N00620490WA0000003813
B1429073923083N00620467WA0000003811
B1429123923153N00620712WA0000003819
B1429173923170N00620749WA0000003810
B1429223923188N00620787WA0000003806
B1429273923206N00620825WA0000003797
B1429323923214N00620691WA0000003788
B1429373923233N00620663WA0000003779
B1429423923226N00620633WA0000003765
B1429473923220N00620604WA0000003753
B1429523923209N00620577WA0000003744
B1429573923191N00620552WA0000003746
B1430023923165N00620532WA0000003746
B1430073923141N00620511WA0000003751
B1430123923115N00620488WA0000003760
B1430173923091N00620466WA0000003772
B1430223923064N00620450WA0000003783
B1430273923034N00620430WA0000003809
B1430323923004N00620415WA0000003818
B1430373922973N00620394WA0000003844
B1430423922936N00620364WA0000003868
B1430473922905N00620343WA0000003901
B1430523922876N00620355WA0000003918
B1430573922870N00620402WA0000003934
B1431023922896N00620405WA0000003958
B1431083922894N00620358WA0000003981
B1431133922908N00620331WA0000004000
B1431183922922N00620304WA0000004013
B1431233922881N00620427WA0000004037
B1431283922895N00620416WA0000004052
B1431333922911N00620408WA0000004072
B1431383922877N00620342WA0000004085
B1431433922856N00620314WA0000004103
B1431483922838N00620295WA0000004109
B1431533922813N00620273WA0000004105
B1431583922790N00620247WA0000004101
B1432033922766N00620213WA0000004103
B1432083922747N00620190WA0000004104
B1432133922723N00620170WA0000004099
B1432183922699N00620147WA0000004100
B1432233922675N00620116WA0000004093
B1432283922650N00620086WA0000004084
B1432333922619N00620056WA0000004073
B1432383922597N00620025WA0000004071
B1432433922570N00619990WA0000004066
B1432483922547N00619949WA0000004059
B1432533922524N00619907WA0000004051
B1432583922502N00619865WA0000004039
B1433033922481N00619820WA0000004030
B1433083922460N00619773WA0000004021
B1433133922442N00619726WA0000004010
B1433183922421N00619675WA0000003998
B1433233922397N00619625WA0000003986
B1433283922375N00619584WA0000003966
B1433333922352N00619541WA0000003954
B1433383922332N00619497WA0000003942
B1433433922313N00619451WA0000003933
B1433483922293N00619408WA0000003923
B1433533922273N00619364WA0000003909
B1433583922257N00619317WA0000003901
B1434033922240N00619271WA0000003889
B1434083922219N00619226WA0000003879
B1434133922198N00619178WA0000003874
B1434183922179N00619134WA0000003872
B1434233922157N00619096WA0000003867
B1434283922131N00619062WA0000003859
B1434333922094N00619043WA0000003855
B1434383922068N00619016WA0000003845
B1434433922042N00618983WA0000003843
B1434483922014N00618949WA0000003831
B1434533921985N00618918WA0000003822
B1434583921957N00618895WA0000003826
B1435033921929N00618876WA0000003816
B1435083921898N00618850WA0000003812
B1435133921868N00618816WA0000003812
B1435183921839N00618778WA0000003811
B1435233921810N00618753WA0000003809
B1435283921777N00618733WA0000003805
B1435333921737N00618712WA0000003804
B1435383921695N00618689WA0000003802
B1435433921657N00618661WA0000003800
B1435483921625N00618632WA0000003796
B1435533921592N00618604WA0000003793
B1435583921559N00618572WA0000003784
B1436033921526N00618540WA0000003779
B1436083921493N00618511WA0000003772
B1436133921461N00618480WA0000003756
B1436183921430N00618446WA0000003744
B1436233921401N00618407WA0000003734
B1436283921374N00618366WA0000003730
B1436333921350N00618326WA0000003728
B1436383921326N00618286WA0000003728
B1436433921297N00618252WA0000003724
B1436483921266N00618220WA0000003717
B1436533921237N00618185WA0000003706
B1436583921202N00618154WA0000003698
B1437033921168N00618131WA0000003687
B1437083921136N00618108WA0000003676
B1437133921106N00618079WA0000003663
B1437183921073N00618046WA0000003658
B1437233921036N00618013WA0000003650
B1437283921001N00617982WA0000003642
B1437333920968N00617956WA0000003630
B1437383920935N00617927WA0000003623
B1437433920900N00617894WA0000003613
B1437483920870N00617861WA0000003598
B1437533920844N00617832WA0000003582
B1437583920815N00617802WA0000003570
B1438033920787N00617773WA0000003557
B1438083920758N00617747WA0000003545
B1438133920725N00617728WA0000003529
B1438183920691N00617708WA0000003513
B1438233920661N00617679WA0000003492
B1438283920638N00617645WA0000003480
B1438333920606N00617620WA0000003467
B1438383920573N00617598WA0000003456
B1438433920542N00617581WA0000003452
B1438483920515N00617565WA0000003436
B1438533920488N00617552WA0000003425
B1438583920461N00617535WA0000003415
B1439033920436N00617519WA0000003404
B1439083920412N00617503WA0000003393
B1439133920387N00617485WA0000003383
B1439183920363N00617463WA0000003372
B1439233920338N00617443WA0000003363
B1439283920311N00617420WA0000003353
B1439333920285N00617400WA0000003344
B1439383920260N00617378WA0000003335
B1439433920233N00617352WA0000003317
B1439483920203N00617341WA0000003308
B1439533920177N00617318WA0000003295
B1439583920152N00617295WA0000003285
B1440033920126N00617273WA0000003273
B1440083920100N00617247WA0000003258
B1440133920076N00617218WA0000003252
B1440183920053N00617188WA0000003246
B1440233920029N00617158WA0000003238
B1440283920003N00617137WA0000003225
B1440333919977N00617114WA0000003213
B1440383919951N00617091WA0000003201
B1440433919925N00617068WA0000003185
B1440483919899N00617045WA0000003170
B1440533919876N00617020WA0000003153
B1440583919853N00616992WA0000003140
B1441033919834N00616960WA0000003123
B1441083919815N00616925WA0000003108
B1441133919795N00616899WA0000003093
B1441183919776N00616876WA0000003083
B1441233919755N00616855WA0000003073
B1441283919732N00616839WA0000003059
B1441333919706N00616826WA0000003047
B1441383919678N00616819WA0000003029
B1441433919650N00616824WA0000003010
B1441483919630N00616811WA0000002999
B1441533919611N00616800WA0000002998
B1441583919589N00616784WA0000002994
B1442033919568N00616768WA0000002991
B1442083919547N00616756WA0000002986
B1442133919527N00616745WA0000002986
B1442183919505N00616729WA0000002984
B1442233919482N00616712WA0000002980
B1442283919462N00616697WA0000002977
B1442333919439N00616681WA0000002972
B1442383919416N00616663WA0000002965
B1442433919394N00616645WA0000002960
B1442483919373N00616628WA0000002960
B1442533919354N00616612WA0000002957
B1442583919334N00616597WA0000002958
B1443033919314N00616584WA0000002959
B1443083919290N00616574WA0000002962
B1443133919257N00616592WA0000002967
B1443183919241N00616631WA0000002973
B1443233919219N00616631WA0000002975
B1443283919196N00616631WA0000002978
B1443333919298N00616645WA0000002977
B1443383919299N00616620WA0000002977
B1443433919293N00616598WA0000002985
B1443483919280N00616583WA0000002986
B1443533919254N00616573WA0000002984
B1443583919227N00616565WA0000002988
B1444033919200N00616561WA0000002991
B1444083919175N00616572WA0000003000
B1444133919151N00616570WA0000003000
B1444183919126N00616572WA0000003005
B1444233919098N00616576WA0000003008
B1444283919074N00616582WA0000003004
B1444333919050N00616581WA0000002992
B1444383919023N00616576WA0000002984
B1444433918995N00616568WA0000002974
B1444483918966N00616561WA0000002964
B1444533918936N00616554WA0000002952
B1444583918905N00616550WA0000002943
B1445033918873N00616546WA0000002937
B1445083918844N00616538WA0000002926
B1445133918814N00616526WA0000002915
B1445183918782N00616513WA0000002901
B1445233918748N00616504WA0000002894
B1445283918713N00616503WA0000002886
B1445333918677N00616500WA0000002874
B1445383918642N00616492WA0000002861
B1445433918609N00616484WA0000002846
B1445483918577N00616475WA0000002832
B1445533918545N00616465WA0000002820
B1445583918515N00616456WA0000002811
B1446033918488N00616442WA0000002798
B1446083918460N00616425WA0000002780
B1446133918430N00616404WA0000002767
B1446223918378N00616371WA0000002735
B1446273918351N00616356WA0000002722
B1446323918325N00616344WA0000002703
B1446373918300N00616332WA0000002690
B1446423918274N00616317WA0000002679
B1446473918247N00616302WA0000002668
B1446523918220N00616284WA0000002651
B1446573918197N00616265WA0000002644
B1447023918173N00616248WA0000002640
B1447073918148N00616234WA0000002635
B1447123918126N00616220WA0000002628
B1447173918105N00616205WA0000002625
B1447223918071N00616192WA0000002616
B1447273918040N00616193WA0000002611
B1447323918009N00616200WA0000002607
B1447373917978N00616209WA0000002607
B1447423917947N00616213WA0000002610
B1447473917918N00616214WA0000002607
B1447523917887N00616214WA0000002603
B1447573917857N00616211WA0000002599
B1448023917828N00616210WA0000002598
B1448073917804N00616202WA0000002603
B1448123917775N00616184WA0000002600
B1448173917743N00616171WA0000002596
B1448223917711N00616163WA0000002599
B1448273917689N00616149WA0000002605
B1448323917665N00616138WA0000002599
B1448373917636N00616134WA0000002598
B1448423917604N00616128WA0000002593
B1448473917570N00616122WA0000002594
B1448523917539N00616119WA0000002596
B1448573917507N00616120WA0000002591
B1449023917475N00616119WA0000002582
B1449073917447N00616113WA0000002582
B1449123917415N00616110WA0000002584
B1449173917387N00616115WA0000002583
B1449223917411N00616156WA0000002581
B1449273917393N00616159WA0000002580
B1449323917375N00616163WA0000002576
B1449373917444N00616091WA0000002569
B1449423917421N00616075WA0000002568
B1449473917394N00616062WA0000002571
B1449523917369N00616053WA0000002569
B1449573917345N00616041WA0000002560
B1450023917321N00616028WA0000002546
B1450073917296N00616019WA0000002547
B1450123917272N00616013WA0000002546
B1450173917248N00616014WA0000002545
B1450223917224N00616014WA0000002544
B1450273917199N00616010WA0000002544
B1450323917171N00616005WA0000002544
B1450373917145N00615999WA0000002542
B1450423917116N00615994WA0000002545
B1450473917086N00615984WA0000002547
B1450523917057N00615973WA0000002547
B1450573917029N00615960WA0000002552
B1451023916999N00615947WA0000002561
B1451073916967N00615942WA0000002566
B1451123916937N00615937WA0000002575
B1451173916908N00615931WA0000002587
B1451223916878N00615925WA0000002592
B1451273916992N00615918WA0000002595
B1451323916971N00615908WA0000002600
B1451373916949N00615896WA0000002603
B1451423916925N00615885WA0000002618
B1451473916895N00615877WA0000002636
B1451523916876N00615894WA0000002650
B1451573916885N00615919WA0000002668
B1452023916918N00615906WA0000002687
B1452073916896N00615870WA0000002703
B1452123916864N00615876WA0000002717
B1452173916857N00615909WA0000002730
B1452223916874N00615927WA0000002747
B1452273916890N00615914WA0000002762
B1452323916891N00615916WA0000002780
B1452373916892N00615918WA0000002795
B1452423916816N00615887WA0000002811
B1452473916807N00615920WA0000002825
B1452523916819N00615938WA0000002841
B1452573916809N00615934WA0000002856
B1453023916832N00615873WA0000002866
B1453073916816N00615846WA0000002888
B1453123916799N00615826WA0000002909
B1453173916779N00615798WA0000002931
B1453223916760N00615770WA0000002949
B1453273916803N00615858WA0000002969
B1453323916805N00615838WA0000002982
B1453373916786N00615808WA0000003003
B1453423916766N00615787WA0000003025
B1453473916734N00615780WA0000003042
B1453523916715N00615816WA0000003058
B1453573916734N00615827WA0000003069
B1454023916746N00615809WA0000003092
B1454073916730N00615771WA0000003111
B1454123916707N00615772WA0000003133
B1454173916674N00615758WA0000003143
B1454223916714N00615820WA0000003156
B1454273916694N00615821WA0000003172
B1454323916720N00615763WA0000003187
B1454373916699N00615737WA0000003205
B1454423916668N00615749WA0000003219
B1454473916653N00615738WA0000003230
B1454523916688N00615779WA0000003241
B1454573916696N00615745WA0000003255
B1455023916698N00615729WA0000003270
B1455073916665N00615677WA0000003278
B1455123916628N00615662WA0000003289
B1455173916615N00615635WA0000003296
B1455223916601N00615607WA0000003307
B1455273916587N00615580WA0000003318
B1455323916636N00615663WA0000003329
B1455373916630N00615649WA0000003334
B1455423916606N00615584WA0000003341
B1455473916572N00615556WA0000003343
B1455523916539N00615538WA0000003342
B1455573916503N00615517WA0000003339
B1456023916466N00615491WA0000003330
B1456073916436N00615463WA0000003315
B1456123916408N00615428WA0000003299
B1456213916343N00615397WA0000003275
B1456263916308N00615375WA0000003258
B1456313916271N00615353WA0000003246
B1456363916236N00615330WA0000003239
B1456413916206N00615310WA0000003236
B1456463916175N00615299WA0000003237
B1456513916145N00615290WA0000003234
B1456563916114N00615284WA0000003240
B1457013916083N00615277WA0000003245
B1457063916048N00615279WA0000003237
B1457113916012N00615270WA0000003226
B1457163915973N00615261WA0000003217
B1457213915936N00615249WA0000003209
B1457263915900N00615232WA0000003197
B1457313915868N00615215WA0000003196
B1457363915830N00615209WA0000003197
B1457413915795N00615204WA0000003192
B1457463915760N00615195WA0000003183
B1457513915736N00615190WA0000003186
B1457563915701N00615158WA0000003178
B1458013915670N00615144WA0000003166
B1458063915636N00615128WA0000003159
B1458113915603N00615114WA0000003149
B1458163915571N00615103WA0000003145
B1458213915539N00615098WA0000003136
B1458263915509N00615089WA0000003125
B1458313915478N00615080WA0000003112
B1458363915443N00615079WA0000003104
B1458413915407N00615073WA0000003099
B1458463915372N00615069WA0000003090
B1458513915338N00615065WA0000003079
B1458563915302N00615060WA0000003060
B1459013915267N00615051WA0000003041
B1459063915238N00615043WA0000003022
B1459113915208N00615027WA0000003003
B1459163915177N00615012WA0000002983
B1459213915146N00614996WA0000002964
B1459263915114N00614982WA0000002951
B1459313915082N00614972WA0000002938
B1459363915051N00614963WA0000002920
B1459413915020N00614956WA0000002905
B1459463914989N00614953WA0000002892
B1459513914955N00614952WA0000002881
B1459563914920N00614953WA0000002863
B1500013914887N00614959WA0000002837
B1500063914857N00614968WA0000002813
B1500113914827N00614980WA0000002801
B1500163914799N00614993WA0000002781
B1500213914773N00615005WA0000002759
B1500263914748N00615022WA0000002733
B1500313914723N00615038WA0000002711
B1500363914698N00615054WA0000002693
B1500413914673N00615072WA0000002678
B1500463914648N00615087WA0000002663
B1500513914625N00615101WA0000002636
B1500563914603N00615116WA0000002613
B1501013914583N00615131WA0000002590
B1501063914566N00615154WA0000002568
B1501113914550N00615179WA0000002549
B1501163914535N00615206WA0000002534
B1501213914519N00615230WA0000002510
B1501263914501N00615253WA0000002492
B1501313914481N00615276WA0000002481
B1501363914460N00615296WA0000002474
B1501413914442N00615316WA0000002465
B1501463914423N00615336WA0000002463
B1501513914399N00615351WA0000002462
B1501563914375N00615368WA0000002458
B1502013914354N00615385WA0000002460
B1502063914333N00615403WA0000002457
B1502113914310N00615426WA0000002456
B1502163914291N00615448WA0000002456
B1502213914272N00615469WA0000002450
B1502263914254N00615493WA0000002445
B1502313914235N00615516WA0000002439
B1502363914215N00615537WA0000002436
B1502413914196N00615558WA0000002430
B1502463914179N00615581WA0000002425
B1502513914165N00615602WA0000002413
B1502563914151N00615622WA0000002397
B1503013914135N00615638WA0000002380
B1503063914117N00615652WA0000002371
B1503113914105N00615668WA0000002357
B1503163914092N00615689WA0000002346
B1503213914076N00615710WA0000002333
B1503263914061N00615732WA0000002324
B1503313914048N00615759WA0000002314
B1503363914031N00615786WA0000002307
B1503413914013N00615808WA0000002295
B1503463913995N00615828WA0000002289
B1503513913978N00615845WA0000002281
B1503563913961N00615862WA0000002271
B1504013913945N00615881WA0000002259
B1504063913931N00615903WA0000002241
B1504113913919N00615928WA0000002227
B1504163913912N00615957WA0000002216
B1504213913902N00615988WA0000002200
B1504263913889N00616020WA0000002192
B1504313913875N00616054WA0000002185
B1504363913869N00616082WA0000002181
B1504413913861N00616104WA0000002178
B1504463913850N00616131WA0000002174
B1504513913838N00616162WA0000002171
B1504563913828N00616194WA0000002168
B1505013913822N00616223WA0000002165
B1505063913812N00616251WA0000002165
B1505113913797N00616278WA0000002165
B1505163913778N00616306WA0000002165
B1505213913760N00616337WA0000002162
B1505263913742N00616369WA0000002160
B1505313913725N00616401WA0000002155
B1505363913711N00616434WA0000002158
B1505413913697N00616468WA0000002160
B1505463913683N00616503WA0000002166
B1505513913670N00616533WA0000002175
B1505563913653N00616556WA0000002183
B1506013913630N00616540WA0000002193
B1506063913637N00616511WA0000002198
B1506113913656N00616512WA0000002204
B1506163913669N00616532WA0000002212
B1506213913687N00616547WA0000002221
B1506263913700N00616564WA0000002231
B1506313913675N00616584WA0000002245
B1506363913648N00616549WA0000002258
B1506413913663N00616518WA0000002274
B1506463913650N00616481WA0000002281
B1506513913669N00616564WA0000002294
B1506563913678N00616586WA0000002307
B1507013913682N00616613WA0000002321
B1507063913686N00616641WA0000002330
B1507113913689N00616669WA0000002338
B1507163913659N00616539WA0000002343
B1507213913647N00616573WA0000002355
B1507263913659N00616588WA0000002376
B1507313913672N00616612WA0000002387
B1507363913675N00616625WA0000002400
B1507413913678N00616638WA0000002414
B1507463913660N00616541WA0000002424
B1507513913651N00616530WA0000002442
B1507563913642N00616519WA0000002454
B1508013913682N00616555WA0000002463
B1508063913686N00616551WA0000002477
B1508113913642N00616514WA0000002490
B1508163913626N00616535WA0000002505
B1508213913635N00616552WA0000002519
B1508263913641N00616546WA0000002528
B1508313913646N00616541WA0000002538
B1508363913631N00616476WA0000002545
B1508413913622N00616457WA0000002557
B1508463913613N00616438WA0000002568
B1508513913605N00616419WA0000002581
B1508563913596N00616400WA0000002594
B1509013913652N00616518WA0000002607
B1509063913647N00616477WA0000002621
B1509113913617N00616457WA0000002625
B1509163913593N00616475WA0000002631
B1509213913587N00616497WA0000002642
B1509263913592N00616511WA0000002652
B1509313913598N00616525WA0000002663
B1509363913638N00616461WA0000002673
B1509413913619N00616429WA0000002682
B1509463913584N00616433WA0000002690
B1509513913574N00616423WA0000002701
B1509563913553N00616472WA0000002707
B1510013913559N00616508WA0000002710
B1510063913544N00616526WA0000002717
B1510113913529N00616544WA0000002723
B1510163913514N00616562WA0000002726
B1510213913588N00616430WA0000002734
B1510263913558N00616407WA0000002742
B1510313913532N00616411WA0000002753
B1510363913507N00616413WA0000002753
B1510413913493N00616380WA0000002755
B1510463913516N00616351WA0000002757
B1510513913504N00616331WA0000002764
B1510563913549N00616331WA0000002767
B1511013913566N00616342WA0000002780
B1511063913583N00616351WA0000002782
B1511113913599N00616360WA0000002783
B1511163913585N00616297WA0000002786
B1511213913593N00616298WA0000002790
B1511263913601N00616300WA0000002792
B1511313913491N00616283WA0000002799
B1511363913457N00616304WA0000002801
B1511413913435N00616333WA0000002804
B1511463913417N00616357WA0000002802
B1511513913390N00616392WA0000002800
B1511563913382N00616418WA0000002797
B1512013913375N00616443WA0000002799
B1512063913361N00616470WA0000002799
B1512113913347N00616498WA0000002802
B1512163913333N00616526WA0000002803
B1512213913320N00616551WA0000002806
B1512263913307N00616578WA0000002811
B1512313913295N00616602WA0000002817
B1512363913282N00616623WA0000002816
B1512413913256N00616638WA0000002817
B1512463913232N00616661WA0000002833
B1512513913217N00616675WA0000002846
B1512563913200N00616698WA0000002855
B1513013913183N00616721WA0000002854
B1513063913166N00616745WA0000002858
B1513113913233N00616579WA0000002865
B1513163913207N00616574WA0000002862
B1513213913180N00616591WA0000002867
B1513263913155N00616594WA0000002886
B1513313913138N00616615WA0000002896
B1513363913120N00616629WA0000002910
B1513413913106N00616656WA0000002925
B1513463913090N00616678WA0000002943
B1513513913143N00616631WA0000002959
B1513563913122N00616606WA0000002970
B1514013913102N00616622WA0000002987
B1514063913097N00616649WA0000003004
B1514113913097N00616654WA0000003016
B1514163913097N00616659WA0000003029
B1514213913096N00616663WA0000003039
B1514263913096N00616668WA0000003055
B1514313913110N00616554WA0000003065
B1514363913101N00616584WA0000003078
B1514413913090N00616587WA0000003095
B1514463913079N00616589WA0000003101
B1514513913133N00616514WA0000003112
B1514563913102N00616517WA0000003122
B1515013913089N00616537WA0000003136
B1515063913096N00616572WA0000003138
B1515113913123N00616574WA0000003141
B1515163913150N00616544WA0000003149
B1515213913146N00616503WA0000003150
B1515263913128N00616473WA0000003153
B1515313913111N00616434WA0000003159
B1515363913108N00616396WA0000003157
B1515413913113N00616350WA0000003155
B1515463913121N00616304WA0000003149
B1515513913131N00616260WA0000003144
B1515563913137N00616221WA0000003136
B1516013913139N00616179WA0000003122
B1516063913135N00616135WA0000003115
B1516113913133N00616093WA0000003102
B1516163913135N00616052WA0000003091
B1516223913142N00616003WA0000003082
B1516273913145N00615961WA0000003075
B1516323913144N00615918WA0000003073
B1516373913144N00615878WA0000003060
B1516423913143N00615837WA0000003052
B1516473913140N00615795WA0000003041
B1516523913138N00615752WA0000003029
B1516573913139N00615709WA0000003014
B1517023913140N00615664WA0000002998
B1517073913141N00615614WA0000002985
B1517123913142N00615566WA0000002976
B1517173913141N00615523WA0000002959
B1517223913141N00615476WA0000002948
B1517273913146N00615431WA0000002936
B1517323913152N00615385WA0000002926
B1517373913157N00615337WA0000002906
B1517423913160N00615288WA0000002890
B1517473913162N00615242WA0000002871
B1517523913160N00615200WA0000002850
B1517573913157N00615159WA0000002833
B1518023913152N00615116WA0000002816
B1518073913145N00615073WA0000002799
B1518123913135N00615034WA0000002780
B1518173913125N00614997WA0000002763
B1518223913118N00614959WA0000002749
B1518273913116N00614919WA0000002735
B1518323913115N00614880WA0000002714
B1518373913112N00614837WA0000002698
B1518423913107N00614791WA0000002683
B1518473913101N00614751WA0000002672
B1518523913102N00614712WA0000002657
B1518573913102N00614670WA0000002642
B1519023913103N00614628WA0000002624
B1519073913101N00614583WA0000002605
B1519123913102N00614541WA0000002593
B1519173913101N00614495WA0000002580
B1519223913097N00614449WA0000002566
B1519273913089N00614407WA0000002550
B1519323913085N00614366WA0000002540
B1519373913084N00614324WA0000002530
B1519423913078N00614280WA0000002523
B1519473913069N00614236WA0000002509
B1519523913061N00614193WA0000002493
B1519573913057N00614151WA0000002481
B1520023913056N00614108WA0000002467
B1520073913058N00614065WA0000002459
B1520123913060N00614021WA0000002453
B1520173913059N00613973WA0000002433
B1520223913055N00613928WA0000002421
B1520273913050N00613885WA0000002406
B1520323913051N00613839WA0000002389
B1520373913054N00613791WA0000002375
B1520423913057N00613745WA0000002357
B1520473913060N00613698WA0000002341
B1520523913064N00613650WA0000002328
B1520573913068N00613602WA0000002319
B1521023913065N00613552WA0000002303
B1521073913062N00613503WA0000002289
B1521123913059N00613457WA0000002277
B1521173913056N00613413WA0000002264
B1521223913055N00613369WA0000002249
B1521273913056N00613326WA0000002240
B1521323913057N00613285WA0000002231
B1521373913059N00613244WA0000002224
B1521423913062N00613205WA0000002217
B1521473913065N00613165WA0000002207
B1521523913065N00613125WA0000002196
B1521573913067N00613086WA0000002187
B1522023913070N00613048WA0000002172
B1522073913070N00613008WA0000002156
B1522123913069N00612966WA0000002144
B1522173913068N00612924WA0000002127
B1522223913071N00612883WA0000002118
B1522273913078N00612842WA0000002107
B1522323913084N00612802WA0000002098
B1522373913089N00612761WA0000002087
B1522423913096N00612720WA0000002074
B1522473913104N00612678WA0000002061
B1522523913108N00612635WA0000002048
B1522573913109N00612594WA0000002036
B1523023913106N00612552WA0000002028
B1523073913105N00612512WA0000002021
B1523123913102N00612474WA0000002012
B1523173913098N00612435WA0000002005
B1523223913094N00612394WA0000001997
B1523273913089N00612353WA0000001988
B1523323913087N00612312WA0000001979
B1523373913085N00612273WA0000001969
B1523423913084N00612231WA0000001960
B1523473913086N00612191WA0000001950
B1523523913092N00612151WA0000001940
B1523573913100N00612113WA0000001935
B1524023913107N00612077WA0000001932
B1524073913113N00612044WA0000001927
B1524123913118N00612013WA0000001921
B1524173913123N00611980WA0000001911
B1524223913129N00611946WA0000001902
B1524273913137N00611914WA0000001895
B1524323913144N00611883WA0000001887
B1524373913149N00611846WA0000001873
B1524423913153N00611809WA0000001859
B1524473913160N00611775WA0000001847
B1524523913168N00611744WA0000001832
B1524573913173N00611709WA0000001814
B1525023913178N00611675WA0000001802
B1525073913183N00611644WA0000001785
B1525123913187N00611607WA0000001773
B1525173913192N00611571WA0000001759
B1525223913199N00611541WA0000001749
B1525273913203N00611511WA0000001740
B1525323913204N00611480WA0000001729
B1525373913207N00611446WA0000001717
B1525423913209N00611410WA0000001707
B1525473913213N00611376WA0000001704
B1525523913218N00611343WA0000001692
B1525573913227N00611309WA0000001679
B1526023913239N00611278WA0000001670
B1526073913247N00611249WA0000001663
B1526123913249N00611218WA0000001650
B1526173913248N00611183WA0000001642
B1526223913245N00611151WA0000001633
B1526273913248N00611123WA0000001623
B1526323913254N00611096WA0000001615
B1526383913261N00611062WA0000001607
B1526433913266N00611037WA0000001606
B1526483913268N00611011WA0000001610
B1526533913270N00610980WA0000001606
B1526583913274N00610943WA0000001597
B1527033913282N00610903WA0000001594
B1527083913289N00610865WA0000001594
B1527133913282N00610828WA0000001590
B1527183913281N00610792WA0000001592
B1527233913280N00610755WA0000001594
B1527283913279N00610719WA0000001599
B1527333913278N00610875WA0000001602
B1527383913308N00610852WA0000001602
B1527433913320N00610818WA0000001599
B1527483913321N00610781WA0000001598
B1527533913321N00610744WA0000001593
B1527583913322N00610706WA0000001591
B1528033913325N00610670WA0000001585
B1528083913326N00610631WA0000001582
B1528133913327N00610592WA0000001581
B1528183913331N00610559WA0000001578
B1528233913344N00610521WA0000001573
B1528283913349N00610486WA0000001579
B1528333913352N00610452WA0000001583
B1528383913353N00610417WA0000001581
B1528433913355N00610381WA0000001581
B1528483913356N00610346WA0000001582
B1528533913326N00610476WA0000001577
B1528583913345N00610467WA0000001577
B1529033913358N00610442WA0000001581
B1529083913369N00610415WA0000001584
B1529133913380N00610382WA0000001593
B1529183913366N00610355WA0000001592
B1529233913369N00610323WA0000001596
B1529283913373N00610291WA0000001602
B1529333913362N00610405WA0000001607
B1529383913377N00610383WA0000001613
B1529433913390N00610355WA0000001620
B1529483913391N00610322WA0000001620
B1529533913364N00610307WA0000001614
B1529583913366N00610278WA0000001614
B1530033913369N00610248WA0000001618
B1530083913320N00610384WA0000001623
B1530133913312N00610417WA0000001626
B1530183913316N00610453WA0000001624
B1530233913312N00610473WA0000001620
B1530283913367N00610444WA0000001615
B1530333913384N00610410WA0000001617
B1530383913401N00610378WA0000001625
B1530433913409N00610344WA0000001632
B1530483913395N00610311WA0000001631
B1530533913401N00610283WA0000001631
B1530583913407N00610254WA0000001631
B1531033913394N00610351WA0000001637
B1531083913414N00610343WA0000001643
B1531133913434N00610335WA0000001652
B1531183913455N00610322WA0000001666
B1531233913441N00610296WA0000001670
B1531283913424N00610296WA0000001671
B1531333913428N00610284WA0000001670
B1531383913426N00610347WA0000001686
B1531433913439N00610359WA0000001693
B1531483913452N00610371WA0000001705
B1531533913466N00610382WA0000001720
B1531583913416N00610346WA0000001733
B1532033913440N00610343WA0000001744
B1532083913435N00610310WA0000001756
B1532133913437N00610298WA0000001769
B1532183913439N00610287WA0000001780
B1532233913442N00610276WA0000001789
B1532283913432N00610337WA0000001801
B1532333913439N00610299WA0000001809
B1532383913414N00610305WA0000001819
B1532433913414N00610300WA0000001830
B1532483913424N00610346WA0000001840
B1532533913431N00610340WA0000001847
B1532583913438N00610334WA0000001852
B1533033913380N00610326WA0000001861
B1533083913381N00610322WA0000001869
B1533133913409N00610362WA0000001877
B1533183913423N00610343WA0000001883
B1533233913425N00610304WA0000001887
B1533283913398N00610281WA0000001890
B1533333913375N00610300WA0000001894
B1533383913377N00610292WA0000001901
B1533433913391N00610347WA0000001905
B1533483913412N00610341WA0000001909
B1533533913416N00610304WA0000001915
B1533583913417N00610271WA0000001910
B1534033913400N00610239WA0000001909
B1534083913370N00610234WA0000001909
B1534133913369N00610221WA0000001907
B1534183913362N00610283WA0000001905
B1534233913373N00610307WA0000001904
B1534283913395N00610324WA0000001911
B1534333913417N00610318WA0000001900
B1534383913436N00610309WA0000001897
B1534433913458N00610296WA0000001905
B1534483913477N00610280WA0000001915
B1534533913493N00610269WA0000001927
B1534583913510N00610250WA0000001929
B1535033913455N00610244WA0000001935
B1535083913453N00610272WA0000001945
B1535133913469N00610280WA0000001958
B1535183913488N00610276WA0000001967
B1535233913507N00610273WA0000001967
B1535283913527N00610269WA0000001965
B1535333913433N00610254WA0000001979
B1535383913442N00610275WA0000001981
B1535433913455N00610282WA0000001984
B1535483913483N00610281WA0000001988
B1535533913502N00610277WA0000001994
B1535583913518N00610261WA0000001989
B1536033913520N00610226WA0000001977
B1536083913534N00610214WA0000001965
B1536133913469N00610219WA0000001956
B1536183913458N00610244WA0000001956
B1536233913446N00610282WA0000001960
B1536283913443N00610310WA0000001970
B1536333913442N00610343WA0000001987
B1536383913449N00610372WA0000002000
B1536433913451N00610411WA0000002007
B1536483913453N00610450WA0000002017
B1536533913455N00610489WA0000002021
B1536583913448N00610342WA0000002032
B1537033913444N00610366WA0000002050
B1537083913461N00610388WA0000002063
B1537133913458N00610403WA0000002080
B1537183913465N00610350WA0000002095
B1537233913460N00610358WA0000002108
B1537283913455N00610367WA0000002121
B1537333913496N00610401WA0000002140
B1537383913510N00610404WA0000002145
B1537433913501N00610358WA0000002147
B1537483913475N00610370WA0000002153
B1537533913463N00610393WA0000002168
B1537583913470N00610427WA0000002174
B1538033913488N00610423WA0000002183
B1538083913489N00610446WA0000002188
B1538133913472N00610368WA0000002194
B1538183913451N00610386WA0000002201
B1538233913449N00610415WA0000002205
B1538283913456N00610450WA0000002215
B1538333913480N00610472WA0000002222
B1538383913496N00610501WA0000002231
B1538433913513N00610531WA0000002236
B1538483913477N00610419WA0000002239
B1538533913457N00610439WA0000002242
B1538583913439N00610464WA0000002252
B1539033913430N00610496WA0000002257
B1539083913420N00610531WA0000002258
B1539133913464N00610520WA0000002265
B1539183913503N00610519WA0000002271
B1539233913532N00610503WA0000002273
B1539283913551N00610477WA0000002274
B1539333913563N00610445WA0000002276
B1539383913580N00610411WA0000002276
B1539433913588N00610374WA0000002275
B1539483913589N00610334WA0000002275
B1539533913588N00610293WA0000002274
B1539583913583N00610252WA0000002272
B1540033913578N00610213WA0000002268
B1540083913572N00610172WA0000002264
B1540133913564N00610130WA0000002260
B1540183913555N00610089WA0000002246
B1540233913547N00610048WA0000002235
B1540283913538N00610006WA0000002222
B1540333913530N00609963WA0000002209
B1540383913523N00609920WA0000002198
B1540433913512N00609878WA0000002187
B1540483913499N00609838WA0000002178
B1540533913486N00609799WA0000002167
B1540583913469N00609758WA0000002156
B1541033913452N00609715WA0000002147
B1541083913436N00609673WA0000002138
B1541133913421N00609631WA0000002128
B1541183913408N00609590WA0000002128
B1541233913397N00609549WA0000002124
B1541283913386N00609508WA0000002122
B1541333913373N00609468WA0000002114
B1541383913360N00609428WA0000002110
B1541433913349N00609387WA0000002104
B1541483913339N00609345WA0000002100
B1541533913328N00609302WA0000002092
B1541583913316N00609261WA0000002087
B1542033913306N00609222WA0000002083
B1542083913303N00609189WA0000002090
B1542133913285N00609153WA0000002093
B1542183913277N00609114WA0000002107
B1542233913287N00609092WA0000002122
B1542283913282N00609055WA0000002123
B1542333913278N00609018WA0000002142
B1542383913314N00609163WA0000002158
B1542433913332N00609161WA0000002164
B1542483913340N00609120WA0000002172
B1542533913328N00609093WA0000002181
B1542583913308N00609064WA0000002200
B1543033913283N00609066WA0000002214
B1543083913276N00609103WA0000002228
B1543133913294N00609097WA0000002240
B1543183913293N00609089WA0000002251
B1543233913272N00609043WA0000002267
B1543283913249N00609025WA0000002279
B1543333913240N00609011WA0000002293
B1543383913230N00608998WA0000002303
B1543433913256N00609072WA0000002317
B1543483913263N00609035WA0000002331
B1543533913241N00609008WA0000002347
B1543583913238N00608984WA0000002362
B1544033913212N00609051WA0000002372
B1544083913231N00609048WA0000002388
B1544133913237N00609038WA0000002408
B1544183913243N00609029WA0000002425
B1544233913210N00609016WA0000002438
B1544283913213N00609036WA0000002452
B1544333913225N00609034WA0000002470
B1544383913225N00609025WA0000002488
B1544433913219N00608950WA0000002508
B1544523913191N00608887WA0000002527
B1544573913175N00608848WA0000002536
B1545023913159N00608809WA0000002556
B1545073913166N00608959WA0000002573
B1545123913175N00608934WA0000002591
B1545173913177N00608904WA0000002611
B1545223913157N00608875WA0000002626
B1545273913151N00608863WA0000002633
B1545323913139N00608923WA0000002646
B1545373913156N00608924WA0000002664
B1545423913176N00608922WA0000002685
B1545473913183N00608889WA0000002697
B1545523913154N00608870WA0000002720
B1545573913126N00608878WA0000002737
B1546023913131N00608906WA0000002751
B1546073913146N00608910WA0000002770
B1546123913154N00608881WA0000002785
B1546173913157N00608883WA0000002802
B1546223913159N00608886WA0000002817
B1546273913087N00608860WA0000002837
B1546323913090N00608878WA0000002856
B1546373913105N00608873WA0000002868
B1546423913127N00608854WA0000002893
B1546473913146N00608830WA0000002912
B1546523913163N00608796WA0000002928
B1546573913149N00608755WA0000002944
B1547023913119N00608741WA0000002966
B1547073913118N00608708WA0000002986
B1547123913108N00608781WA0000003002
B1547173913126N00608773WA0000003016
B1547223913153N00608773WA0000003036
B1547273913172N00608751WA0000003063
B1547323913195N00608745WA0000003085
B1547373913126N00608727WA0000003111
B1547423913122N00608749WA0000003135
B1547473913141N00608757WA0000003156
B1547523913158N00608746WA0000003181
B1547573913168N00608719WA0000003203
B1548023913176N00608702WA0000003232
B1548073913113N00608698WA0000003257
B1548123913114N00608733WA0000003275
B1548173913127N00608754WA0000003289
B1548223913155N00608756WA0000003306
B1548273913175N00608739WA0000003317
B1548323913202N00608715WA0000003326
B1548373913216N00608673WA0000003344
B1548423913230N00608641WA0000003371
B1548473913239N00608608WA0000003395
B1548523913246N00608575WA0000003419
B1548573913257N00608537WA0000003441
B1549023913263N00608494WA0000003465
B1549073913273N00608459WA0000003488
B1549123913285N00608421WA0000003511
B1549173913293N00608386WA0000003536
B1549223913298N00608349WA0000003544
B1549273913307N00608325WA0000003551
B1549323913319N00608292WA0000003547
B1549373913330N00608258WA0000003548
B1549423913336N00608224WA0000003544
B1549473913342N00608192WA0000003541
B1549523913354N00608164WA0000003528
B1549573913367N00608137WA0000003525
B1550023913379N00608108WA0000003525
B1550073913385N00608074WA0000003523
B1550123913393N00608040WA0000003520
B1550173913397N00608005WA0000003510
B1550223913404N00607969WA0000003505
B1550273913413N00607944WA0000003502
B1550323913425N00607913WA0000003493
B1550373913439N00607880WA0000003491
B1550423913451N00607845WA0000003484
B1550473913461N00607810WA0000003477
B1550523913472N00607776WA0000003469
B1550573913491N00607745WA0000003460
B1551023913511N00607748WA0000003448
B1551073913526N00607762WA0000003438
B1551123913533N00607777WA0000003437
B1551173913524N00607805WA0000003432
B1551223913514N00607821WA0000003428
B1551273913523N00607824WA0000003417
B1551323913545N00607819WA0000003405
B1551373913563N00607818WA0000003394
B1551423913582N00607819WA0000003374
B1551473913604N00607814WA0000003353
B1551523913600N00607775WA0000003327
B1551573913575N00607770WA0000003308
B1552023913566N00607795WA0000003290
B1552073913584N00607784WA0000003274
B1552123913598N00607769WA0000003254
B1552173913620N00607750WA0000003237
B1552223913640N00607735WA0000003220
B1552273913659N00607719WA0000003204
B1552323913674N00607701WA0000003191
B1552373913690N00607681WA0000003180
B1552423913705N00607658WA0000003171
B1552473913717N00607632WA0000003164
B1552523913730N00607606WA0000003154
B1552573913745N00607585WA0000003140
B1553023913761N00607566WA0000003133
B1553073913778N00607553WA0000003122
B1553123913795N00607540WA0000003107
B1553173913813N00607529WA0000003097
B1553223913832N00607521WA0000003085
B1553273913853N00607512WA0000003075
B1553323913870N00607497WA0000003072
B1553373913885N00607485WA0000003077
B1553423913898N00607465WA0000003073
B1553473913894N00607432WA0000003069
B1553523913897N00607395WA0000003063
B1553573913881N00607350WA0000003054
B1554023913845N00607347WA0000003048
B1554073913840N00607321WA0000003040
B1554123913834N00607296WA0000003041
B1554173913828N00607271WA0000003036
B1554223913794N00607406WA0000003024
B1554273913783N00607431WA0000003019
B1554323913772N00607456WA0000003013
B1554373913759N00607379WA0000003012
B1554423913728N00607345WA0000003012
B1554513913680N00607290WA0000002989
B1554563913686N00607344WA0000002993
B1555013913667N00607325WA0000002980
B1555063913648N00607307WA0000002974
B1555113913676N00607391WA0000002968
B1555163913694N00607407WA0000002963
B1555213913713N00607414WA0000002955
B1555263913732N00607419WA0000002953
B1555313913750N00607424WA0000002942
B1555363913726N00607320WA0000002936
B1555413913697N00607276WA0000002923
B1555463913667N00607247WA0000002915
B1555513913634N00607220WA0000002904
B1555563913599N00607199WA0000002898
B1556013913562N00607177WA0000002889
B1556063913526N00607154WA0000002879
B1556113913488N00607134WA0000002873
B1556163913450N00607119WA0000002867
B1556213913413N00607104WA0000002853
B1556263913374N00607094WA0000002836
B1556313913336N00607083WA0000002819
B1556363913296N00607069WA0000002807
B1556413913259N00607055WA0000002794
B1556463913222N00607045WA0000002780
B1556513913184N00607037WA0000002768
B1556563913159N00607047WA0000002760
B1557013913116N00607040WA0000002749
B1557063913081N00607018WA0000002737
B1557113913038N00606997WA0000002729
B1557163913013N00606961WA0000002719
B1557213912986N00606925WA0000002703
B1557263912952N00606897WA0000002690
B1557313912916N00606871WA0000002671
B1557363912883N00606846WA0000002654
B1557413912844N00606845WA0000002637
B1557463912807N00606836WA0000002621
B1557513912774N00606836WA0000002602
B1557563912736N00606841WA0000002587
B1558013912699N00606818WA0000002571
B1558063912669N00606792WA0000002563
B1558113912639N00606765WA0000002549
B1558163912607N00606755WA0000002537
B1558213912580N00606747WA0000002526
B1558263912546N00606722WA0000002523
B1558313912520N00606691WA0000002517
B1558363912551N00606663WA0000002508
B1558413912566N00606632WA0000002493
B1558463912583N00606603WA0000002481
B1558513912593N00606614WA0000002469
B1558563912594N00606594WA0000002456
B1559013912545N00606636WA0000002442
B1559063912509N00606644WA0000002431
B1559113912472N00606654WA0000002426
B1559163912437N00606652WA0000002418
B1559213912402N00606636WA0000002400
B1559263912376N00606610WA0000002384
B1559313912352N00606584WA0000002361
B1559363912327N00606562WA0000002341
B1559413912304N00606527WA0000002326
B1559463912334N00606483WA0000002317
B1559513912319N00606459WA0000002307
B1559563912305N00606435WA0000002301
B1600013912405N00606437WA0000002301
B1600063912425N00606433WA0000002296
B1600113912449N00606433WA0000002287
B1600163912475N00606431WA0000002267
B1600213912499N00606428WA0000002253
B1600263912518N00606429WA0000002237
B1600313912537N00606426WA0000002218
B1600363912558N00606423WA0000002204
B1600413912581N00606422WA0000002187
B1600463912606N00606424WA0000002174
B1600513912631N00606427WA0000002160
B1600563912654N00606427WA0000002144
B1601013912675N00606430WA0000002134
B1601063912693N00606440WA0000002117
B1601113912712N00606452WA0000002105
B1601163912732N00606470WA0000002091
B1601213912752N00606495WA0000002070
B1601263912773N00606512WA0000002058
B1601313912794N00606529WA0000002044
B1601363912816N00606541WA0000002032
B1601413912838N00606549WA0000002019
B1601463912860N00606563WA0000002005
B1601513912884N00606575WA0000001992
B1601563912911N00606582WA0000001983
B1602013912935N00606587WA0000001977
B1602063912962N00606593WA0000001967
B1602113912986N00606593WA0000001963
B1602163913011N00606588WA0000001953
B1602213913036N00606580WA0000001940
B1602263913060N00606578WA0000001928
B1602313913081N00606580WA0000001917
B1602363913102N00606576WA0000001907
B1602413913125N00606574WA0000001891
B1602463913149N00606571WA0000001879
B1602513913174N00606569WA0000001866
B1602563913198N00606569WA0000001853
B1603013913224N00606570WA0000001843
B1603063913251N00606574WA0000001827
B1603113913281N00606577WA0000001811
B1603163913311N00606580WA0000001801
B1603213913331N00606594WA0000001795
B1603263913356N00606606WA0000001780
B1603313913379N00606625WA0000001764
B1603363913406N00606641WA0000001753
B1603413913435N00606619WA0000001739
B1603463913413N00606653WA0000001716
B1603513913440N00606681WA0000001697
B1603563913467N00606708WA0000001679
B1604013913413N00606664WA0000001661
B1604063913434N00606690WA0000001645
B1604113913454N00606716WA0000001627
B1604163913475N00606742WA0000001606
B1604213913495N00606768WA0000001592
B1604263913434N00606643WA0000001575
B1604313913448N00606651WA0000001558
B1604363913472N00606640WA0000001544
B1604413913459N00606626WA0000001527
B1604463913467N00606661WA0000001514
B1604543913522N00606659WA0000001490
B1604593913553N00606658WA0000001475
B1605043913584N00606657WA0000001455
B1605093913512N00606655WA0000001441
B1605143913536N00606685WA0000001428
B1605193913557N00606656WA0000001416
B1605243913547N00606654WA0000001403
B1605293913562N00606650WA0000001389
B1605343913590N00606698WA0000001374
B1605393913612N00606666WA0000001356
B1605443913626N00606634WA0000001345
B1605493913636N00606603WA0000001335
B1605543913644N00606578WA0000001326
B1605593913649N00606552WA0000001317
B1606043913641N00606531WA0000001307
B1606093913622N00606513WA0000001293
B1606143913599N00606502WA0000001283
B1606193913578N00606489WA0000001275
B1606243913559N00606522WA0000001268
B1606293913536N00606522WA0000001258
B1606343913513N00606522WA0000001246
B1606393913638N00606542WA0000001234
B1606443913673N00606543WA0000001223
B1606493913707N00606542WA0000001210
B1606543913739N00606542WA0000001201
B1606593913770N00606544WA0000001188
B1607043913795N00606543WA0000001173
B1607093913827N00606540WA0000001155
B1607143913781N00606528WA0000001143
B1607193913786N00606567WA0000001128
B1607243913809N00606590WA0000001116
B1607293913841N00606595WA0000001094
B1607343913872N00606601WA0000001081
B1607393913899N00606599WA0000001067
B1607443913930N00606605WA0000001055
B1607493913888N00606571WA0000001047
B1607543913891N00606588WA0000001037
B1607593913912N00606621WA0000001028
B1608043913940N00606631WA0000001014
B1608093913982N00606630WA0000001000
B1608143914004N00606612WA0000000989
B1608193914020N00606577WA0000000974
B1608243914048N00606548WA0000000968
B1608293914076N00606520WA0000000962
B1608343913978N00606562WA0000000953
B1608393913959N00606573WA0000000946
B1608443913967N00606600WA0000000937
B1608493913955N00606616WA0000000926
B1608543913986N00606594WA0000000916
B1608593914007N00606621WA0000000906
B1609043914009N00606626WA0000000896
B1609093914024N00606599WA0000000889
B1609143914045N00606636WA0000000881
B1609193914067N00606617WA0000000873
B1609243914068N00606593WA0000000865
B1609293914074N00606563WA0000000859
B1609343914069N00606549WA0000000850
B1609393914057N00606546WA0000000843
B1609443914047N00606535WA0000000836
B1609493914044N00606558WA0000000824
B1609543914077N00606556WA0000000812
B1609593914084N00606518WA0000000798
B1610043914081N00606495WA0000000792
B1610093914074N00606480WA0000000786
B1610143914076N00606461WA0000000773
B1610193914074N00606438WA0000000763
B1610243914072N00606417WA0000000750
B1610293914068N00606394WA0000000737
B1610343914061N00606456WA0000000724
B1610393914048N00606443WA0000000713
B1610443914041N00606430WA0000000704
B1610493914033N00606416WA0000000691
B1610543914020N00606401WA0000000685
B1610593914005N00606390WA0000000674
B1611043913989N00606380WA0000000660
B1611093913974N00606372WA0000000654
B1611143913975N00606373WA0000000652
B1611193913968N00606370WA0000000652
B1611243913970N00606368WA0000000652
B1611293913968N00606372WA0000000651
LXCG     VERSION:6.31
GAA23DE95F3FBC2640E6590C7293011677FB078F73A67F4CDA646C12038C34FA3B5C94
G8F81BB8CD5BFC16B3F43C2B9DD11DF8A5A0055B9CE2081394FBA3F233A03F0758E6
G59A728C20025ECEB96AA4181A8A945127895A0C66142CCB00CA98006BF9B78890A6
GD0A71B195E5224BC9F68A915E7800D392C89DE7B8D11718E72B6C2CFEE86D